<?xml version="1.0" encoding="UTF-8" standalone="no" ?>
<gpx xmlns="http://www.topografix.com/GPX/1/1" xmlns:xsi="http://www.w3.org/2001/XMLSchema-instance" xsi:schemaLocation="http://www.topografix.com/GPX/1/1 http://www.topografix.com/GPX/1/1/gpx.xsd" version="1.1" creator="VisuGPX - https://www.visugpx.com">
  <metadata>
    <name>rocamadour (chemin des escargots)</name>
    <desc><![CDATA[belle ballade , un peu accidentée, des paysages variés et, en prime , un site exceptionnel]]></desc>
  </metadata>
  <trk>
    <name><![CDATA[ACTIVE LOG]]></name>
    <trkseg>
      <trkpt lat="44.80133" lon="1.61608">
        <ele>205.37878417969</ele>
        <time>2012-05-13T07:26:13Z</time>
      </trkpt>
      <trkpt lat="44.80133" lon="1.61609">
        <ele>205.37878417969</ele>
        <time>2012-05-13T07:26:14Z</time>
      </trkpt>
      <trkpt lat="44.80133" lon="1.61612">
        <ele>210.18542480469</ele>
        <time>2012-05-13T07:26:18Z</time>
      </trkpt>
      <trkpt lat="44.80133" lon="1.61613">
        <ele>214.51123046875</ele>
        <time>2012-05-13T07:26:21Z</time>
      </trkpt>
      <trkpt lat="44.80134" lon="1.61612">
        <ele>218.35656738281</ele>
        <time>2012-05-13T07:26:24Z</time>
      </trkpt>
      <trkpt lat="44.80134" lon="1.61612">
        <ele>221.72119140625</ele>
        <time>2012-05-13T07:26:27Z</time>
      </trkpt>
      <trkpt lat="44.80134" lon="1.61613">
        <ele>226.52783203125</ele>
        <time>2012-05-13T07:26:31Z</time>
      </trkpt>
      <trkpt lat="44.80134" lon="1.61612">
        <ele>230.373046875</ele>
        <time>2012-05-13T07:26:35Z</time>
      </trkpt>
      <trkpt lat="44.80135" lon="1.61612">
        <ele>231.33435058594</ele>
        <time>2012-05-13T07:26:37Z</time>
      </trkpt>
      <trkpt lat="44.80135" lon="1.61611">
        <ele>234.69909667969</ele>
        <time>2012-05-13T07:26:41Z</time>
      </trkpt>
      <trkpt lat="44.80135" lon="1.61611">
        <ele>238.06359863281</ele>
        <time>2012-05-13T07:26:47Z</time>
      </trkpt>
      <trkpt lat="44.80135" lon="1.61611">
        <ele>241.42822265625</ele>
        <time>2012-05-13T07:26:54Z</time>
      </trkpt>
      <trkpt lat="44.80135" lon="1.61611">
        <ele>244.31225585938</ele>
        <time>2012-05-13T07:27:01Z</time>
      </trkpt>
      <trkpt lat="44.80135" lon="1.61611">
        <ele>247.6767578125</ele>
        <time>2012-05-13T07:27:12Z</time>
      </trkpt>
      <trkpt lat="44.80132" lon="1.61624">
        <ele>250.08020019531</ele>
        <time>2012-05-13T07:27:27Z</time>
      </trkpt>
      <trkpt lat="44.80128" lon="1.61632">
        <ele>252.00280761719</ele>
        <time>2012-05-13T07:27:34Z</time>
      </trkpt>
      <trkpt lat="44.80117" lon="1.61651">
        <ele>254.88659667969</ele>
        <time>2012-05-13T07:27:53Z</time>
      </trkpt>
      <trkpt lat="44.80099" lon="1.61648">
        <ele>255.84802246094</ele>
        <time>2012-05-13T07:28:11Z</time>
      </trkpt>
      <trkpt lat="44.80082" lon="1.61647">
        <ele>256.32873535156</ele>
        <time>2012-05-13T07:28:28Z</time>
      </trkpt>
      <trkpt lat="44.80063" lon="1.61649">
        <ele>253.92541503906</ele>
        <time>2012-05-13T07:28:45Z</time>
      </trkpt>
      <trkpt lat="44.80041" lon="1.61648">
        <ele>252.96398925781</ele>
        <time>2012-05-13T07:29:02Z</time>
      </trkpt>
      <trkpt lat="44.80036" lon="1.61648">
        <ele>253.44470214844</ele>
        <time>2012-05-13T07:29:06Z</time>
      </trkpt>
      <trkpt lat="44.80022" lon="1.61651">
        <ele>252.96398925781</ele>
        <time>2012-05-13T07:29:18Z</time>
      </trkpt>
      <trkpt lat="44.80008" lon="1.61655">
        <ele>252.4833984375</ele>
        <time>2012-05-13T07:29:35Z</time>
      </trkpt>
      <trkpt lat="44.80001" lon="1.61659">
        <ele>252.00280761719</ele>
        <time>2012-05-13T07:29:43Z</time>
      </trkpt>
      <trkpt lat="44.80003" lon="1.61668">
        <ele>252.00280761719</ele>
        <time>2012-05-13T07:29:53Z</time>
      </trkpt>
      <trkpt lat="44.80016" lon="1.61667">
        <ele>252.00280761719</ele>
        <time>2012-05-13T07:30:05Z</time>
      </trkpt>
      <trkpt lat="44.80018" lon="1.61667">
        <ele>251.52209472656</ele>
        <time>2012-05-13T07:30:07Z</time>
      </trkpt>
      <trkpt lat="44.80036" lon="1.61665">
        <ele>252.00280761719</ele>
        <time>2012-05-13T07:30:24Z</time>
      </trkpt>
      <trkpt lat="44.80048" lon="1.61668">
        <ele>252.00280761719</ele>
        <time>2012-05-13T07:30:37Z</time>
      </trkpt>
      <trkpt lat="44.80045" lon="1.6167">
        <ele>251.04138183594</ele>
        <time>2012-05-13T07:30:48Z</time>
      </trkpt>
      <trkpt lat="44.80043" lon="1.61669">
        <ele>251.04138183594</ele>
        <time>2012-05-13T07:30:49Z</time>
      </trkpt>
      <trkpt lat="44.80027" lon="1.61669">
        <ele>248.15759277344</ele>
        <time>2012-05-13T07:31:05Z</time>
      </trkpt>
      <trkpt lat="44.80016" lon="1.6168">
        <ele>246.71545410156</ele>
        <time>2012-05-13T07:31:18Z</time>
      </trkpt>
      <trkpt lat="44.80019" lon="1.61686">
        <ele>244.79284667969</ele>
        <time>2012-05-13T07:31:30Z</time>
      </trkpt>
      <trkpt lat="44.80022" lon="1.61685">
        <ele>244.31225585938</ele>
        <time>2012-05-13T07:31:33Z</time>
      </trkpt>
      <trkpt lat="44.80032" lon="1.61681">
        <ele>241.90893554688</ele>
        <time>2012-05-13T07:31:46Z</time>
      </trkpt>
      <trkpt lat="44.80037" lon="1.61681">
        <ele>240.46704101562</ele>
        <time>2012-05-13T07:31:52Z</time>
      </trkpt>
      <trkpt lat="44.80046" lon="1.61694">
        <ele>239.98620605469</ele>
        <time>2012-05-13T07:32:04Z</time>
      </trkpt>
      <trkpt lat="44.80047" lon="1.61703">
        <ele>239.02490234375</ele>
        <time>2012-05-13T07:32:19Z</time>
      </trkpt>
      <trkpt lat="44.80046" lon="1.617">
        <ele>238.54431152344</ele>
        <time>2012-05-13T07:32:21Z</time>
      </trkpt>
      <trkpt lat="44.80038" lon="1.6169">
        <ele>237.10229492188</ele>
        <time>2012-05-13T07:32:33Z</time>
      </trkpt>
      <trkpt lat="44.80036" lon="1.61688">
        <ele>236.62170410156</ele>
        <time>2012-05-13T07:32:36Z</time>
      </trkpt>
      <trkpt lat="44.80034" lon="1.6169">
        <ele>236.14099121094</ele>
        <time>2012-05-13T07:32:38Z</time>
      </trkpt>
      <trkpt lat="44.80042" lon="1.61715">
        <ele>234.21838378906</ele>
        <time>2012-05-13T07:32:56Z</time>
      </trkpt>
      <trkpt lat="44.80038" lon="1.61709">
        <ele>231.33435058594</ele>
        <time>2012-05-13T07:33:15Z</time>
      </trkpt>
      <trkpt lat="44.80031" lon="1.61708">
        <ele>228.45043945312</ele>
        <time>2012-05-13T07:33:27Z</time>
      </trkpt>
      <trkpt lat="44.80031" lon="1.61711">
        <ele>228.93115234375</ele>
        <time>2012-05-13T07:33:31Z</time>
      </trkpt>
      <trkpt lat="44.80033" lon="1.61724">
        <ele>227.9697265625</ele>
        <time>2012-05-13T07:33:47Z</time>
      </trkpt>
      <trkpt lat="44.80028" lon="1.61721">
        <ele>225.0859375</ele>
        <time>2012-05-13T07:34:03Z</time>
      </trkpt>
      <trkpt lat="44.80022" lon="1.61726">
        <ele>224.12451171875</ele>
        <time>2012-05-13T07:34:15Z</time>
      </trkpt>
      <trkpt lat="44.8002" lon="1.61735">
        <ele>222.68249511719</ele>
        <time>2012-05-13T07:34:29Z</time>
      </trkpt>
      <trkpt lat="44.80021" lon="1.61727">
        <ele>225.0859375</ele>
        <time>2012-05-13T07:34:51Z</time>
      </trkpt>
      <trkpt lat="44.80017" lon="1.61727">
        <ele>225.0859375</ele>
        <time>2012-05-13T07:35:00Z</time>
      </trkpt>
      <trkpt lat="44.80009" lon="1.61733">
        <ele>222.68249511719</ele>
        <time>2012-05-13T07:35:14Z</time>
      </trkpt>
      <trkpt lat="44.80008" lon="1.61734">
        <ele>223.16320800781</ele>
        <time>2012-05-13T07:35:16Z</time>
      </trkpt>
      <trkpt lat="44.80007" lon="1.61741">
        <ele>220.27917480469</ele>
        <time>2012-05-13T07:35:32Z</time>
      </trkpt>
      <trkpt lat="44.80016" lon="1.61739">
        <ele>218.35656738281</ele>
        <time>2012-05-13T07:35:44Z</time>
      </trkpt>
      <trkpt lat="44.80015" lon="1.61737">
        <ele>216.91467285156</ele>
        <time>2012-05-13T07:35:54Z</time>
      </trkpt>
      <trkpt lat="44.80012" lon="1.6174">
        <ele>216.43395996094</ele>
        <time>2012-05-13T07:35:57Z</time>
      </trkpt>
      <trkpt lat="44.80002" lon="1.61747">
        <ele>214.03063964844</ele>
        <time>2012-05-13T07:36:05Z</time>
      </trkpt>
      <trkpt lat="44.79998" lon="1.61763">
        <ele>214.03063964844</ele>
        <time>2012-05-13T07:36:18Z</time>
      </trkpt>
      <trkpt lat="44.80008" lon="1.61765">
        <ele>210.18542480469</ele>
        <time>2012-05-13T07:36:35Z</time>
      </trkpt>
      <trkpt lat="44.80009" lon="1.61766">
        <ele>210.18542480469</ele>
        <time>2012-05-13T07:36:36Z</time>
      </trkpt>
      <trkpt lat="44.80008" lon="1.61769">
        <ele>209.70483398438</ele>
        <time>2012-05-13T07:36:47Z</time>
      </trkpt>
      <trkpt lat="44.8" lon="1.61769">
        <ele>206.82067871094</ele>
        <time>2012-05-13T07:37:01Z</time>
      </trkpt>
      <trkpt lat="44.80012" lon="1.61775">
        <ele>203.93688964844</ele>
        <time>2012-05-13T07:37:19Z</time>
      </trkpt>
      <trkpt lat="44.80008" lon="1.61784">
        <ele>200.572265625</ele>
        <time>2012-05-13T07:37:35Z</time>
      </trkpt>
      <trkpt lat="44.79996" lon="1.61789">
        <ele>198.1689453125</ele>
        <time>2012-05-13T07:37:54Z</time>
      </trkpt>
      <trkpt lat="44.79986" lon="1.61795">
        <ele>199.13012695312</ele>
        <time>2012-05-13T07:38:05Z</time>
      </trkpt>
      <trkpt lat="44.79857" lon="1.61905">
        <ele>187.59436035156</ele>
        <time>2012-05-13T07:39:28Z</time>
      </trkpt>
      <trkpt lat="44.79894" lon="1.61802">
        <ele>184.22985839844</ele>
        <time>2012-05-13T07:39:52Z</time>
      </trkpt>
      <trkpt lat="44.79894" lon="1.61805">
        <ele>181.82641601562</ele>
        <time>2012-05-13T07:40:02Z</time>
      </trkpt>
      <trkpt lat="44.79914" lon="1.61781">
        <ele>177.98120117188</ele>
        <time>2012-05-13T07:40:19Z</time>
      </trkpt>
      <trkpt lat="44.79914" lon="1.61778">
        <ele>177.50061035156</ele>
        <time>2012-05-13T07:40:21Z</time>
      </trkpt>
      <trkpt lat="44.79911" lon="1.61778">
        <ele>175.57788085938</ele>
        <time>2012-05-13T07:40:28Z</time>
      </trkpt>
      <trkpt lat="44.79905" lon="1.61774">
        <ele>172.69396972656</ele>
        <time>2012-05-13T07:40:41Z</time>
      </trkpt>
      <trkpt lat="44.79897" lon="1.61774">
        <ele>169.32946777344</ele>
        <time>2012-05-13T07:40:54Z</time>
      </trkpt>
      <trkpt lat="44.7989" lon="1.61776">
        <ele>165.48413085938</ele>
        <time>2012-05-13T07:41:08Z</time>
      </trkpt>
      <trkpt lat="44.79885" lon="1.6177">
        <ele>163.5615234375</ele>
        <time>2012-05-13T07:41:24Z</time>
      </trkpt>
      <trkpt lat="44.79879" lon="1.61775">
        <ele>161.158203125</ele>
        <time>2012-05-13T07:41:46Z</time>
      </trkpt>
      <trkpt lat="44.79845" lon="1.61752">
        <ele>160.67749023438</ele>
        <time>2012-05-13T07:42:08Z</time>
      </trkpt>
      <trkpt lat="44.79826" lon="1.61736">
        <ele>158.75476074219</ele>
        <time>2012-05-13T07:42:27Z</time>
      </trkpt>
      <trkpt lat="44.79814" lon="1.61726">
        <ele>154.90954589844</ele>
        <time>2012-05-13T07:42:46Z</time>
      </trkpt>
      <trkpt lat="44.798" lon="1.61714">
        <ele>151.544921875</ele>
        <time>2012-05-13T07:43:06Z</time>
      </trkpt>
      <trkpt lat="44.79784" lon="1.61701">
        <ele>148.18041992188</ele>
        <time>2012-05-13T07:43:25Z</time>
      </trkpt>
      <trkpt lat="44.79759" lon="1.61684">
        <ele>145.29638671875</ele>
        <time>2012-05-13T07:43:52Z</time>
      </trkpt>
      <trkpt lat="44.79739" lon="1.61655">
        <ele>143.37365722656</ele>
        <time>2012-05-13T07:44:15Z</time>
      </trkpt>
      <trkpt lat="44.79722" lon="1.6164">
        <ele>140.00915527344</ele>
        <time>2012-05-13T07:44:37Z</time>
      </trkpt>
      <trkpt lat="44.79706" lon="1.61623">
        <ele>136.64465332031</ele>
        <time>2012-05-13T07:44:58Z</time>
      </trkpt>
      <trkpt lat="44.79687" lon="1.61607">
        <ele>134.2412109375</ele>
        <time>2012-05-13T07:45:20Z</time>
      </trkpt>
      <trkpt lat="44.79682" lon="1.61594">
        <ele>133.76049804688</ele>
        <time>2012-05-13T07:45:31Z</time>
      </trkpt>
      <trkpt lat="44.79667" lon="1.61552">
        <ele>134.72192382812</ele>
        <time>2012-05-13T07:45:56Z</time>
      </trkpt>
      <trkpt lat="44.7966" lon="1.61531">
        <ele>135.20251464844</ele>
        <time>2012-05-13T07:46:09Z</time>
      </trkpt>
      <trkpt lat="44.79653" lon="1.61511">
        <ele>135.20251464844</ele>
        <time>2012-05-13T07:46:22Z</time>
      </trkpt>
      <trkpt lat="44.7965" lon="1.615">
        <ele>135.20251464844</ele>
        <time>2012-05-13T07:46:28Z</time>
      </trkpt>
      <trkpt lat="44.7964" lon="1.61474">
        <ele>135.68310546875</ele>
        <time>2012-05-13T07:46:43Z</time>
      </trkpt>
      <trkpt lat="44.79638" lon="1.61468">
        <ele>135.20251464844</ele>
        <time>2012-05-13T07:46:47Z</time>
      </trkpt>
      <trkpt lat="44.79636" lon="1.61452">
        <ele>135.20251464844</ele>
        <time>2012-05-13T07:46:58Z</time>
      </trkpt>
      <trkpt lat="44.79635" lon="1.6144">
        <ele>135.20251464844</ele>
        <time>2012-05-13T07:47:04Z</time>
      </trkpt>
      <trkpt lat="44.79633" lon="1.61436">
        <ele>135.20251464844</ele>
        <time>2012-05-13T07:47:07Z</time>
      </trkpt>
      <trkpt lat="44.79633" lon="1.61428">
        <ele>135.20251464844</ele>
        <time>2012-05-13T07:47:11Z</time>
      </trkpt>
      <trkpt lat="44.79629" lon="1.61388">
        <ele>135.20251464844</ele>
        <time>2012-05-13T07:47:30Z</time>
      </trkpt>
      <trkpt lat="44.7963" lon="1.61384">
        <ele>135.68310546875</ele>
        <time>2012-05-13T07:47:35Z</time>
      </trkpt>
      <trkpt lat="44.79638" lon="1.61357">
        <ele>135.20251464844</ele>
        <time>2012-05-13T07:47:53Z</time>
      </trkpt>
      <trkpt lat="44.79647" lon="1.61338">
        <ele>135.20251464844</ele>
        <time>2012-05-13T07:48:07Z</time>
      </trkpt>
      <trkpt lat="44.79661" lon="1.61311">
        <ele>135.20251464844</ele>
        <time>2012-05-13T07:48:26Z</time>
      </trkpt>
      <trkpt lat="44.79664" lon="1.61294">
        <ele>135.20251464844</ele>
        <time>2012-05-13T07:48:35Z</time>
      </trkpt>
      <trkpt lat="44.79666" lon="1.61291">
        <ele>135.20251464844</ele>
        <time>2012-05-13T07:48:38Z</time>
      </trkpt>
      <trkpt lat="44.79668" lon="1.61288">
        <ele>135.20251464844</ele>
        <time>2012-05-13T07:48:41Z</time>
      </trkpt>
      <trkpt lat="44.79669" lon="1.61282">
        <ele>135.20251464844</ele>
        <time>2012-05-13T07:48:45Z</time>
      </trkpt>
      <trkpt lat="44.79681" lon="1.61264">
        <ele>134.72192382812</ele>
        <time>2012-05-13T07:48:59Z</time>
      </trkpt>
      <trkpt lat="44.79688" lon="1.61252">
        <ele>134.72192382812</ele>
        <time>2012-05-13T07:49:08Z</time>
      </trkpt>
      <trkpt lat="44.797" lon="1.61229">
        <ele>134.2412109375</ele>
        <time>2012-05-13T07:49:23Z</time>
      </trkpt>
      <trkpt lat="44.79706" lon="1.61204">
        <ele>134.2412109375</ele>
        <time>2012-05-13T07:49:40Z</time>
      </trkpt>
      <trkpt lat="44.7971" lon="1.61165">
        <ele>134.2412109375</ele>
        <time>2012-05-13T07:50:06Z</time>
      </trkpt>
      <trkpt lat="44.79718" lon="1.61129">
        <ele>133.27990722656</ele>
        <time>2012-05-13T07:50:28Z</time>
      </trkpt>
      <trkpt lat="44.7972" lon="1.61105">
        <ele>133.27990722656</ele>
        <time>2012-05-13T07:50:47Z</time>
      </trkpt>
      <trkpt lat="44.79728" lon="1.61074">
        <ele>133.76049804688</ele>
        <time>2012-05-13T07:51:07Z</time>
      </trkpt>
      <trkpt lat="44.7973" lon="1.61032">
        <ele>134.72192382812</ele>
        <time>2012-05-13T07:51:33Z</time>
      </trkpt>
      <trkpt lat="44.79718" lon="1.61012">
        <ele>133.76049804688</ele>
        <time>2012-05-13T07:51:50Z</time>
      </trkpt>
      <trkpt lat="44.79714" lon="1.61005">
        <ele>134.2412109375</ele>
        <time>2012-05-13T07:51:57Z</time>
      </trkpt>
      <trkpt lat="44.79695" lon="1.60981">
        <ele>133.76049804688</ele>
        <time>2012-05-13T07:52:21Z</time>
      </trkpt>
      <trkpt lat="44.7969" lon="1.60977">
        <ele>134.2412109375</ele>
        <time>2012-05-13T07:52:25Z</time>
      </trkpt>
      <trkpt lat="44.79672" lon="1.60954">
        <ele>134.2412109375</ele>
        <time>2012-05-13T07:52:47Z</time>
      </trkpt>
      <trkpt lat="44.79665" lon="1.60948">
        <ele>133.76049804688</ele>
        <time>2012-05-13T07:52:52Z</time>
      </trkpt>
      <trkpt lat="44.79642" lon="1.60915">
        <ele>134.2412109375</ele>
        <time>2012-05-13T07:53:17Z</time>
      </trkpt>
      <trkpt lat="44.79621" lon="1.60892">
        <ele>134.72192382812</ele>
        <time>2012-05-13T07:53:36Z</time>
      </trkpt>
      <trkpt lat="44.79611" lon="1.60886">
        <ele>135.20251464844</ele>
        <time>2012-05-13T07:53:43Z</time>
      </trkpt>
      <trkpt lat="44.79599" lon="1.60878">
        <ele>135.68310546875</ele>
        <time>2012-05-13T07:53:55Z</time>
      </trkpt>
      <trkpt lat="44.79583" lon="1.60859">
        <ele>136.16394042969</ele>
        <time>2012-05-13T07:54:16Z</time>
      </trkpt>
      <trkpt lat="44.79566" lon="1.60835">
        <ele>136.64465332031</ele>
        <time>2012-05-13T07:54:40Z</time>
      </trkpt>
      <trkpt lat="44.79539" lon="1.60819">
        <ele>136.64465332031</ele>
        <time>2012-05-13T07:55:05Z</time>
      </trkpt>
      <trkpt lat="44.79521" lon="1.60793">
        <ele>137.60583496094</ele>
        <time>2012-05-13T07:55:27Z</time>
      </trkpt>
      <trkpt lat="44.79513" lon="1.60753">
        <ele>137.12524414062</ele>
        <time>2012-05-13T07:55:50Z</time>
      </trkpt>
      <trkpt lat="44.79509" lon="1.60698">
        <ele>137.12524414062</ele>
        <time>2012-05-13T07:56:12Z</time>
      </trkpt>
      <trkpt lat="44.79515" lon="1.60687">
        <ele>136.64465332031</ele>
        <time>2012-05-13T07:56:19Z</time>
      </trkpt>
      <trkpt lat="44.79516" lon="1.60682">
        <ele>137.12524414062</ele>
        <time>2012-05-13T07:56:23Z</time>
      </trkpt>
      <trkpt lat="44.79515" lon="1.60675">
        <ele>137.12524414062</ele>
        <time>2012-05-13T07:56:26Z</time>
      </trkpt>
      <trkpt lat="44.79514" lon="1.60664">
        <ele>137.12524414062</ele>
        <time>2012-05-13T07:56:32Z</time>
      </trkpt>
      <trkpt lat="44.79515" lon="1.60658">
        <ele>137.12524414062</ele>
        <time>2012-05-13T07:56:35Z</time>
      </trkpt>
      <trkpt lat="44.79516" lon="1.60648">
        <ele>137.12524414062</ele>
        <time>2012-05-13T07:56:43Z</time>
      </trkpt>
      <trkpt lat="44.79526" lon="1.60629">
        <ele>137.12524414062</ele>
        <time>2012-05-13T07:56:58Z</time>
      </trkpt>
      <trkpt lat="44.79527" lon="1.60624">
        <ele>137.12524414062</ele>
        <time>2012-05-13T07:57:02Z</time>
      </trkpt>
      <trkpt lat="44.79531" lon="1.60607">
        <ele>136.64465332031</ele>
        <time>2012-05-13T07:57:10Z</time>
      </trkpt>
      <trkpt lat="44.79538" lon="1.60584">
        <ele>136.64465332031</ele>
        <time>2012-05-13T07:57:28Z</time>
      </trkpt>
      <trkpt lat="44.7954" lon="1.60581">
        <ele>136.64465332031</ele>
        <time>2012-05-13T07:57:30Z</time>
      </trkpt>
      <trkpt lat="44.79543" lon="1.60574">
        <ele>136.64465332031</ele>
        <time>2012-05-13T07:57:36Z</time>
      </trkpt>
      <trkpt lat="44.79551" lon="1.60554">
        <ele>136.64465332031</ele>
        <time>2012-05-13T07:57:53Z</time>
      </trkpt>
      <trkpt lat="44.79558" lon="1.60545">
        <ele>137.12524414062</ele>
        <time>2012-05-13T07:58:01Z</time>
      </trkpt>
      <trkpt lat="44.79569" lon="1.60526">
        <ele>136.16394042969</ele>
        <time>2012-05-13T07:58:14Z</time>
      </trkpt>
      <trkpt lat="44.79573" lon="1.60507">
        <ele>135.68310546875</ele>
        <time>2012-05-13T07:58:27Z</time>
      </trkpt>
      <trkpt lat="44.79573" lon="1.60493">
        <ele>136.16394042969</ele>
        <time>2012-05-13T07:58:35Z</time>
      </trkpt>
      <trkpt lat="44.79575" lon="1.60487">
        <ele>136.16394042969</ele>
        <time>2012-05-13T07:58:39Z</time>
      </trkpt>
      <trkpt lat="44.7958" lon="1.6046">
        <ele>136.16394042969</ele>
        <time>2012-05-13T07:58:53Z</time>
      </trkpt>
      <trkpt lat="44.79582" lon="1.60414">
        <ele>136.64465332031</ele>
        <time>2012-05-13T07:59:18Z</time>
      </trkpt>
      <trkpt lat="44.79574" lon="1.60374">
        <ele>135.68310546875</ele>
        <time>2012-05-13T07:59:41Z</time>
      </trkpt>
      <trkpt lat="44.79557" lon="1.6035">
        <ele>134.72192382812</ele>
        <time>2012-05-13T08:00:06Z</time>
      </trkpt>
      <trkpt lat="44.79548" lon="1.60334">
        <ele>134.72192382812</ele>
        <time>2012-05-13T08:00:17Z</time>
      </trkpt>
      <trkpt lat="44.7953" lon="1.60296">
        <ele>134.2412109375</ele>
        <time>2012-05-13T08:00:43Z</time>
      </trkpt>
      <trkpt lat="44.79511" lon="1.60262">
        <ele>133.76049804688</ele>
        <time>2012-05-13T08:01:06Z</time>
      </trkpt>
      <trkpt lat="44.79493" lon="1.60234">
        <ele>133.27990722656</ele>
        <time>2012-05-13T08:01:30Z</time>
      </trkpt>
      <trkpt lat="44.79476" lon="1.60194">
        <ele>132.79931640625</ele>
        <time>2012-05-13T08:01:56Z</time>
      </trkpt>
      <trkpt lat="44.79463" lon="1.60164">
        <ele>132.31860351562</ele>
        <time>2012-05-13T08:02:17Z</time>
      </trkpt>
      <trkpt lat="44.79447" lon="1.60141">
        <ele>131.837890625</ele>
        <time>2012-05-13T08:02:38Z</time>
      </trkpt>
      <trkpt lat="44.79428" lon="1.60114">
        <ele>132.31860351562</ele>
        <time>2012-05-13T08:03:00Z</time>
      </trkpt>
      <trkpt lat="44.79425" lon="1.60102">
        <ele>132.79931640625</ele>
        <time>2012-05-13T08:03:08Z</time>
      </trkpt>
      <trkpt lat="44.79427" lon="1.60063">
        <ele>134.72192382812</ele>
        <time>2012-05-13T08:03:31Z</time>
      </trkpt>
      <trkpt lat="44.79434" lon="1.60038">
        <ele>135.20251464844</ele>
        <time>2012-05-13T08:03:53Z</time>
      </trkpt>
      <trkpt lat="44.79437" lon="1.60027">
        <ele>135.20251464844</ele>
        <time>2012-05-13T08:03:59Z</time>
      </trkpt>
      <trkpt lat="44.79448" lon="1.60005">
        <ele>135.68310546875</ele>
        <time>2012-05-13T08:04:17Z</time>
      </trkpt>
      <trkpt lat="44.79473" lon="1.59963">
        <ele>137.12524414062</ele>
        <time>2012-05-13T08:04:49Z</time>
      </trkpt>
      <trkpt lat="44.79505" lon="1.59948">
        <ele>137.60583496094</ele>
        <time>2012-05-13T08:05:16Z</time>
      </trkpt>
      <trkpt lat="44.7953" lon="1.59935">
        <ele>136.64465332031</ele>
        <time>2012-05-13T08:05:45Z</time>
      </trkpt>
      <trkpt lat="44.79541" lon="1.59923">
        <ele>135.68310546875</ele>
        <time>2012-05-13T08:05:57Z</time>
      </trkpt>
      <trkpt lat="44.79549" lon="1.59911">
        <ele>136.16394042969</ele>
        <time>2012-05-13T08:06:05Z</time>
      </trkpt>
      <trkpt lat="44.79574" lon="1.59901">
        <ele>136.64465332031</ele>
        <time>2012-05-13T08:06:27Z</time>
      </trkpt>
      <trkpt lat="44.79601" lon="1.59874">
        <ele>136.16394042969</ele>
        <time>2012-05-13T08:06:54Z</time>
      </trkpt>
      <trkpt lat="44.79619" lon="1.5983">
        <ele>135.68310546875</ele>
        <time>2012-05-13T08:07:20Z</time>
      </trkpt>
      <trkpt lat="44.7962" lon="1.59829">
        <ele>136.64465332031</ele>
        <time>2012-05-13T08:07:21Z</time>
      </trkpt>
      <trkpt lat="44.79624" lon="1.59826">
        <ele>136.16394042969</ele>
        <time>2012-05-13T08:07:25Z</time>
      </trkpt>
      <trkpt lat="44.79639" lon="1.59781">
        <ele>136.16394042969</ele>
        <time>2012-05-13T08:07:43Z</time>
      </trkpt>
      <trkpt lat="44.79638" lon="1.59773">
        <ele>136.16394042969</ele>
        <time>2012-05-13T08:07:47Z</time>
      </trkpt>
      <trkpt lat="44.79635" lon="1.59742">
        <ele>135.68310546875</ele>
        <time>2012-05-13T08:08:03Z</time>
      </trkpt>
      <trkpt lat="44.79628" lon="1.59707">
        <ele>135.20251464844</ele>
        <time>2012-05-13T08:08:20Z</time>
      </trkpt>
      <trkpt lat="44.79618" lon="1.59691">
        <ele>134.72192382812</ele>
        <time>2012-05-13T08:08:33Z</time>
      </trkpt>
      <trkpt lat="44.796" lon="1.59673">
        <ele>134.2412109375</ele>
        <time>2012-05-13T08:08:51Z</time>
      </trkpt>
      <trkpt lat="44.79575" lon="1.59658">
        <ele>133.76049804688</ele>
        <time>2012-05-13T08:09:14Z</time>
      </trkpt>
      <trkpt lat="44.7957" lon="1.59655">
        <ele>134.2412109375</ele>
        <time>2012-05-13T08:09:23Z</time>
      </trkpt>
      <trkpt lat="44.79559" lon="1.59652">
        <ele>133.27990722656</ele>
        <time>2012-05-13T08:09:43Z</time>
      </trkpt>
      <trkpt lat="44.79544" lon="1.59634">
        <ele>132.79931640625</ele>
        <time>2012-05-13T08:09:58Z</time>
      </trkpt>
      <trkpt lat="44.79537" lon="1.59629">
        <ele>132.31860351562</ele>
        <time>2012-05-13T08:10:05Z</time>
      </trkpt>
      <trkpt lat="44.79518" lon="1.59607">
        <ele>131.837890625</ele>
        <time>2012-05-13T08:10:23Z</time>
      </trkpt>
      <trkpt lat="44.79504" lon="1.59605">
        <ele>131.837890625</ele>
        <time>2012-05-13T08:10:36Z</time>
      </trkpt>
      <trkpt lat="44.79483" lon="1.59588">
        <ele>131.35729980469</ele>
        <time>2012-05-13T08:10:53Z</time>
      </trkpt>
      <trkpt lat="44.79459" lon="1.59576">
        <ele>130.39599609375</ele>
        <time>2012-05-13T08:11:16Z</time>
      </trkpt>
      <trkpt lat="44.79437" lon="1.59601">
        <ele>130.39599609375</ele>
        <time>2012-05-13T08:11:37Z</time>
      </trkpt>
      <trkpt lat="44.79414" lon="1.59629">
        <ele>131.35729980469</ele>
        <time>2012-05-13T08:12:01Z</time>
      </trkpt>
      <trkpt lat="44.79403" lon="1.59617">
        <ele>132.79931640625</ele>
        <time>2012-05-13T08:12:13Z</time>
      </trkpt>
      <trkpt lat="44.7938" lon="1.59602">
        <ele>135.20251464844</ele>
        <time>2012-05-13T08:12:34Z</time>
      </trkpt>
      <trkpt lat="44.79362" lon="1.59587">
        <ele>136.16394042969</ele>
        <time>2012-05-13T08:12:52Z</time>
      </trkpt>
      <trkpt lat="44.79345" lon="1.59572">
        <ele>138.56726074219</ele>
        <time>2012-05-13T08:13:10Z</time>
      </trkpt>
      <trkpt lat="44.79325" lon="1.59554">
        <ele>140.48986816406</ele>
        <time>2012-05-13T08:13:30Z</time>
      </trkpt>
      <trkpt lat="44.79308" lon="1.5953">
        <ele>141.93176269531</ele>
        <time>2012-05-13T08:13:53Z</time>
      </trkpt>
      <trkpt lat="44.79302" lon="1.59501">
        <ele>142.89306640625</ele>
        <time>2012-05-13T08:14:14Z</time>
      </trkpt>
      <trkpt lat="44.79301" lon="1.59491">
        <ele>144.33520507812</ele>
        <time>2012-05-13T08:14:21Z</time>
      </trkpt>
      <trkpt lat="44.79294" lon="1.59484">
        <ele>144.33520507812</ele>
        <time>2012-05-13T08:14:27Z</time>
      </trkpt>
      <trkpt lat="44.79281" lon="1.59457">
        <ele>146.2578125</ele>
        <time>2012-05-13T08:14:50Z</time>
      </trkpt>
      <trkpt lat="44.79272" lon="1.59438">
        <ele>147.21899414062</ele>
        <time>2012-05-13T08:15:10Z</time>
      </trkpt>
      <trkpt lat="44.79264" lon="1.59422">
        <ele>148.18041992188</ele>
        <time>2012-05-13T08:15:28Z</time>
      </trkpt>
      <trkpt lat="44.79266" lon="1.5939">
        <ele>149.1416015625</ele>
        <time>2012-05-13T08:15:52Z</time>
      </trkpt>
      <trkpt lat="44.79265" lon="1.59358">
        <ele>151.544921875</ele>
        <time>2012-05-13T08:16:19Z</time>
      </trkpt>
      <trkpt lat="44.79262" lon="1.59315">
        <ele>153.94836425781</ele>
        <time>2012-05-13T08:16:45Z</time>
      </trkpt>
      <trkpt lat="44.79262" lon="1.59312">
        <ele>154.42895507812</ele>
        <time>2012-05-13T08:16:46Z</time>
      </trkpt>
      <trkpt lat="44.79258" lon="1.59276">
        <ele>156.3515625</ele>
        <time>2012-05-13T08:17:09Z</time>
      </trkpt>
      <trkpt lat="44.79263" lon="1.59254">
        <ele>156.83215332031</ele>
        <time>2012-05-13T08:17:25Z</time>
      </trkpt>
      <trkpt lat="44.79267" lon="1.59238">
        <ele>157.79357910156</ele>
        <time>2012-05-13T08:17:37Z</time>
      </trkpt>
      <trkpt lat="44.79269" lon="1.59235">
        <ele>158.27416992188</ele>
        <time>2012-05-13T08:17:39Z</time>
      </trkpt>
      <trkpt lat="44.79273" lon="1.59213">
        <ele>159.71618652344</ele>
        <time>2012-05-13T08:17:56Z</time>
      </trkpt>
      <trkpt lat="44.79285" lon="1.59176">
        <ele>161.63891601562</ele>
        <time>2012-05-13T08:18:22Z</time>
      </trkpt>
      <trkpt lat="44.79287" lon="1.59158">
        <ele>163.5615234375</ele>
        <time>2012-05-13T08:18:40Z</time>
      </trkpt>
      <trkpt lat="44.79287" lon="1.59157">
        <ele>162.60009765625</ele>
        <time>2012-05-13T08:18:47Z</time>
      </trkpt>
      <trkpt lat="44.79287" lon="1.59156">
        <ele>163.5615234375</ele>
        <time>2012-05-13T08:18:49Z</time>
      </trkpt>
      <trkpt lat="44.79285" lon="1.59145">
        <ele>164.04211425781</ele>
        <time>2012-05-13T08:19:06Z</time>
      </trkpt>
      <trkpt lat="44.79283" lon="1.59141">
        <ele>164.52270507812</ele>
        <time>2012-05-13T08:19:32Z</time>
      </trkpt>
      <trkpt lat="44.79283" lon="1.59122">
        <ele>163.5615234375</ele>
        <time>2012-05-13T08:20:06Z</time>
      </trkpt>
      <trkpt lat="44.7928" lon="1.59079">
        <ele>161.158203125</ele>
        <time>2012-05-13T08:20:33Z</time>
      </trkpt>
      <trkpt lat="44.79282" lon="1.59047">
        <ele>159.71618652344</ele>
        <time>2012-05-13T08:20:53Z</time>
      </trkpt>
      <trkpt lat="44.79284" lon="1.59022">
        <ele>159.23547363281</ele>
        <time>2012-05-13T08:21:09Z</time>
      </trkpt>
      <trkpt lat="44.79281" lon="1.58977">
        <ele>157.79357910156</ele>
        <time>2012-05-13T08:21:36Z</time>
      </trkpt>
      <trkpt lat="44.79278" lon="1.58934">
        <ele>154.42895507812</ele>
        <time>2012-05-13T08:22:03Z</time>
      </trkpt>
      <trkpt lat="44.79279" lon="1.58897">
        <ele>152.98693847656</ele>
        <time>2012-05-13T08:22:27Z</time>
      </trkpt>
      <trkpt lat="44.79278" lon="1.58858">
        <ele>151.06420898438</ele>
        <time>2012-05-13T08:22:52Z</time>
      </trkpt>
      <trkpt lat="44.79271" lon="1.58804">
        <ele>148.18041992188</ele>
        <time>2012-05-13T08:23:28Z</time>
      </trkpt>
      <trkpt lat="44.79267" lon="1.58763">
        <ele>146.2578125</ele>
        <time>2012-05-13T08:23:55Z</time>
      </trkpt>
      <trkpt lat="44.79262" lon="1.58716">
        <ele>144.81579589844</ele>
        <time>2012-05-13T08:24:25Z</time>
      </trkpt>
      <trkpt lat="44.79255" lon="1.58676">
        <ele>143.85437011719</ele>
        <time>2012-05-13T08:24:51Z</time>
      </trkpt>
      <trkpt lat="44.79248" lon="1.58634">
        <ele>142.41247558594</ele>
        <time>2012-05-13T08:25:19Z</time>
      </trkpt>
      <trkpt lat="44.79238" lon="1.58598">
        <ele>140.97045898438</ele>
        <time>2012-05-13T08:25:48Z</time>
      </trkpt>
      <trkpt lat="44.79234" lon="1.58583">
        <ele>140.97045898438</ele>
        <time>2012-05-13T08:26:07Z</time>
      </trkpt>
      <trkpt lat="44.79219" lon="1.58556">
        <ele>140.00915527344</ele>
        <time>2012-05-13T08:26:29Z</time>
      </trkpt>
      <trkpt lat="44.79211" lon="1.58541">
        <ele>140.48986816406</ele>
        <time>2012-05-13T08:26:48Z</time>
      </trkpt>
      <trkpt lat="44.79198" lon="1.58503">
        <ele>138.56726074219</ele>
        <time>2012-05-13T08:27:13Z</time>
      </trkpt>
      <trkpt lat="44.7919" lon="1.58466">
        <ele>137.12524414062</ele>
        <time>2012-05-13T08:27:38Z</time>
      </trkpt>
      <trkpt lat="44.79184" lon="1.58444">
        <ele>136.64465332031</ele>
        <time>2012-05-13T08:28:02Z</time>
      </trkpt>
      <trkpt lat="44.79185" lon="1.58441">
        <ele>136.16394042969</ele>
        <time>2012-05-13T08:28:37Z</time>
      </trkpt>
      <trkpt lat="44.79178" lon="1.5845">
        <ele>134.72192382812</ele>
        <time>2012-05-13T08:28:54Z</time>
      </trkpt>
      <trkpt lat="44.79168" lon="1.58473">
        <ele>131.35729980469</ele>
        <time>2012-05-13T08:29:14Z</time>
      </trkpt>
      <trkpt lat="44.79159" lon="1.58479">
        <ele>129.43469238281</ele>
        <time>2012-05-13T08:29:29Z</time>
      </trkpt>
      <trkpt lat="44.79145" lon="1.5848">
        <ele>126.55065917969</ele>
        <time>2012-05-13T08:29:50Z</time>
      </trkpt>
      <trkpt lat="44.79132" lon="1.58458">
        <ele>123.66674804688</ele>
        <time>2012-05-13T08:30:09Z</time>
      </trkpt>
      <trkpt lat="44.79116" lon="1.58451">
        <ele>120.78283691406</ele>
        <time>2012-05-13T08:30:27Z</time>
      </trkpt>
      <trkpt lat="44.79091" lon="1.58434">
        <ele>117.41821289062</ele>
        <time>2012-05-13T08:30:53Z</time>
      </trkpt>
      <trkpt lat="44.79084" lon="1.58433">
        <ele>115.97619628906</ele>
        <time>2012-05-13T08:31:07Z</time>
      </trkpt>
      <trkpt lat="44.79059" lon="1.58421">
        <ele>113.09228515625</ele>
        <time>2012-05-13T08:31:35Z</time>
      </trkpt>
      <trkpt lat="44.7905" lon="1.58416">
        <ele>111.65026855469</ele>
        <time>2012-05-13T08:31:45Z</time>
      </trkpt>
      <trkpt lat="44.79034" lon="1.58408">
        <ele>110.20825195312</ele>
        <time>2012-05-13T08:32:02Z</time>
      </trkpt>
      <trkpt lat="44.79028" lon="1.58404">
        <ele>109.72766113281</ele>
        <time>2012-05-13T08:32:16Z</time>
      </trkpt>
      <trkpt lat="44.79026" lon="1.58403">
        <ele>110.20825195312</ele>
        <time>2012-05-13T08:32:32Z</time>
      </trkpt>
      <trkpt lat="44.79024" lon="1.58399">
        <ele>110.20825195312</ele>
        <time>2012-05-13T08:32:53Z</time>
      </trkpt>
      <trkpt lat="44.79023" lon="1.58401">
        <ele>109.72766113281</ele>
        <time>2012-05-13T08:35:01Z</time>
      </trkpt>
      <trkpt lat="44.79026" lon="1.58398">
        <ele>110.20825195312</ele>
        <time>2012-05-13T08:35:49Z</time>
      </trkpt>
      <trkpt lat="44.79044" lon="1.58402">
        <ele>109.72766113281</ele>
        <time>2012-05-13T08:38:00Z</time>
      </trkpt>
      <trkpt lat="44.79047" lon="1.58405">
        <ele>111.16955566406</ele>
        <time>2012-05-13T08:38:04Z</time>
      </trkpt>
      <trkpt lat="44.79055" lon="1.58412">
        <ele>112.61157226562</ele>
        <time>2012-05-13T08:38:12Z</time>
      </trkpt>
      <trkpt lat="44.7907" lon="1.5842">
        <ele>114.05358886719</ele>
        <time>2012-05-13T08:38:28Z</time>
      </trkpt>
      <trkpt lat="44.79076" lon="1.58425">
        <ele>114.5341796875</ele>
        <time>2012-05-13T08:38:34Z</time>
      </trkpt>
      <trkpt lat="44.79089" lon="1.58429">
        <ele>116.45678710938</ele>
        <time>2012-05-13T08:38:49Z</time>
      </trkpt>
      <trkpt lat="44.7909" lon="1.58429">
        <ele>116.45678710938</ele>
        <time>2012-05-13T08:38:50Z</time>
      </trkpt>
      <trkpt lat="44.79099" lon="1.58428">
        <ele>117.89880371094</ele>
        <time>2012-05-13T08:38:57Z</time>
      </trkpt>
      <trkpt lat="44.79115" lon="1.58444">
        <ele>119.3408203125</ele>
        <time>2012-05-13T08:39:12Z</time>
      </trkpt>
      <trkpt lat="44.79118" lon="1.58453">
        <ele>120.30212402344</ele>
        <time>2012-05-13T08:39:19Z</time>
      </trkpt>
      <trkpt lat="44.79121" lon="1.58455">
        <ele>120.78283691406</ele>
        <time>2012-05-13T08:39:22Z</time>
      </trkpt>
      <trkpt lat="44.79122" lon="1.58461">
        <ele>121.744140625</ele>
        <time>2012-05-13T08:39:25Z</time>
      </trkpt>
      <trkpt lat="44.79128" lon="1.58474">
        <ele>122.70544433594</ele>
        <time>2012-05-13T08:39:37Z</time>
      </trkpt>
      <trkpt lat="44.79135" lon="1.58486">
        <ele>124.62805175781</ele>
        <time>2012-05-13T08:39:51Z</time>
      </trkpt>
      <trkpt lat="44.79151" lon="1.58491">
        <ele>127.51196289062</ele>
        <time>2012-05-13T08:40:09Z</time>
      </trkpt>
      <trkpt lat="44.79165" lon="1.5848">
        <ele>131.35729980469</ele>
        <time>2012-05-13T08:40:30Z</time>
      </trkpt>
      <trkpt lat="44.79171" lon="1.58468">
        <ele>132.79931640625</ele>
        <time>2012-05-13T08:40:43Z</time>
      </trkpt>
      <trkpt lat="44.79172" lon="1.58465">
        <ele>132.79931640625</ele>
        <time>2012-05-13T08:40:45Z</time>
      </trkpt>
      <trkpt lat="44.79178" lon="1.58449">
        <ele>134.2412109375</ele>
        <time>2012-05-13T08:41:02Z</time>
      </trkpt>
      <trkpt lat="44.79181" lon="1.58439">
        <ele>136.16394042969</ele>
        <time>2012-05-13T08:41:12Z</time>
      </trkpt>
      <trkpt lat="44.7918" lon="1.58426">
        <ele>135.68310546875</ele>
        <time>2012-05-13T08:41:22Z</time>
      </trkpt>
      <trkpt lat="44.79176" lon="1.58402">
        <ele>135.20251464844</ele>
        <time>2012-05-13T08:41:36Z</time>
      </trkpt>
      <trkpt lat="44.79172" lon="1.58376">
        <ele>135.20251464844</ele>
        <time>2012-05-13T08:41:52Z</time>
      </trkpt>
      <trkpt lat="44.7917" lon="1.58354">
        <ele>134.2412109375</ele>
        <time>2012-05-13T08:42:09Z</time>
      </trkpt>
      <trkpt lat="44.7917" lon="1.58329">
        <ele>132.79931640625</ele>
        <time>2012-05-13T08:42:25Z</time>
      </trkpt>
      <trkpt lat="44.79172" lon="1.58312">
        <ele>131.837890625</ele>
        <time>2012-05-13T08:42:37Z</time>
      </trkpt>
      <trkpt lat="44.7918" lon="1.5829">
        <ele>129.91528320312</ele>
        <time>2012-05-13T08:42:56Z</time>
      </trkpt>
      <trkpt lat="44.79181" lon="1.58286">
        <ele>129.43469238281</ele>
        <time>2012-05-13T08:42:59Z</time>
      </trkpt>
      <trkpt lat="44.79183" lon="1.58283">
        <ele>128.9541015625</ele>
        <time>2012-05-13T08:43:01Z</time>
      </trkpt>
      <trkpt lat="44.79185" lon="1.58276">
        <ele>128.47338867188</ele>
        <time>2012-05-13T08:43:06Z</time>
      </trkpt>
      <trkpt lat="44.79189" lon="1.58262">
        <ele>127.51196289062</ele>
        <time>2012-05-13T08:43:15Z</time>
      </trkpt>
      <trkpt lat="44.7919" lon="1.58257">
        <ele>127.51196289062</ele>
        <time>2012-05-13T08:43:19Z</time>
      </trkpt>
      <trkpt lat="44.7919" lon="1.5825">
        <ele>127.99255371094</ele>
        <time>2012-05-13T08:43:24Z</time>
      </trkpt>
      <trkpt lat="44.79178" lon="1.58232">
        <ele>128.47338867188</ele>
        <time>2012-05-13T08:43:42Z</time>
      </trkpt>
      <trkpt lat="44.79166" lon="1.5822">
        <ele>130.87670898438</ele>
        <time>2012-05-13T08:43:58Z</time>
      </trkpt>
      <trkpt lat="44.79162" lon="1.58196">
        <ele>131.837890625</ele>
        <time>2012-05-13T08:44:14Z</time>
      </trkpt>
      <trkpt lat="44.79156" lon="1.58165">
        <ele>133.76049804688</ele>
        <time>2012-05-13T08:44:35Z</time>
      </trkpt>
      <trkpt lat="44.79149" lon="1.58128">
        <ele>134.72192382812</ele>
        <time>2012-05-13T08:44:57Z</time>
      </trkpt>
      <trkpt lat="44.79144" lon="1.58093">
        <ele>134.72192382812</ele>
        <time>2012-05-13T08:45:18Z</time>
      </trkpt>
      <trkpt lat="44.79142" lon="1.58061">
        <ele>134.72192382812</ele>
        <time>2012-05-13T08:45:38Z</time>
      </trkpt>
      <trkpt lat="44.79142" lon="1.58042">
        <ele>135.20251464844</ele>
        <time>2012-05-13T08:45:51Z</time>
      </trkpt>
      <trkpt lat="44.79142" lon="1.58034">
        <ele>135.68310546875</ele>
        <time>2012-05-13T08:45:55Z</time>
      </trkpt>
      <trkpt lat="44.7914" lon="1.58003">
        <ele>135.20251464844</ele>
        <time>2012-05-13T08:46:17Z</time>
      </trkpt>
      <trkpt lat="44.79136" lon="1.5796">
        <ele>133.76049804688</ele>
        <time>2012-05-13T08:46:44Z</time>
      </trkpt>
      <trkpt lat="44.79133" lon="1.5792">
        <ele>133.76049804688</ele>
        <time>2012-05-13T08:47:07Z</time>
      </trkpt>
      <trkpt lat="44.79133" lon="1.57882">
        <ele>135.20251464844</ele>
        <time>2012-05-13T08:47:29Z</time>
      </trkpt>
      <trkpt lat="44.79133" lon="1.57857">
        <ele>135.68310546875</ele>
        <time>2012-05-13T08:47:45Z</time>
      </trkpt>
      <trkpt lat="44.79141" lon="1.57826">
        <ele>136.64465332031</ele>
        <time>2012-05-13T08:48:08Z</time>
      </trkpt>
      <trkpt lat="44.79147" lon="1.57814">
        <ele>138.08654785156</ele>
        <time>2012-05-13T08:48:31Z</time>
      </trkpt>
      <trkpt lat="44.7915" lon="1.57809">
        <ele>138.08654785156</ele>
        <time>2012-05-13T08:48:49Z</time>
      </trkpt>
      <trkpt lat="44.79166" lon="1.57788">
        <ele>140.48986816406</ele>
        <time>2012-05-13T08:49:13Z</time>
      </trkpt>
      <trkpt lat="44.79178" lon="1.5777">
        <ele>142.41247558594</ele>
        <time>2012-05-13T08:49:31Z</time>
      </trkpt>
      <trkpt lat="44.79195" lon="1.57753">
        <ele>144.33520507812</ele>
        <time>2012-05-13T08:49:53Z</time>
      </trkpt>
      <trkpt lat="44.79211" lon="1.57737">
        <ele>146.73840332031</ele>
        <time>2012-05-13T08:50:15Z</time>
      </trkpt>
      <trkpt lat="44.79224" lon="1.57723">
        <ele>148.66101074219</ele>
        <time>2012-05-13T08:50:33Z</time>
      </trkpt>
      <trkpt lat="44.79233" lon="1.57713">
        <ele>150.10302734375</ele>
        <time>2012-05-13T08:50:45Z</time>
      </trkpt>
      <trkpt lat="44.79237" lon="1.57709">
        <ele>150.58361816406</ele>
        <time>2012-05-13T08:50:50Z</time>
      </trkpt>
      <trkpt lat="44.79249" lon="1.57697">
        <ele>152.98693847656</ele>
        <time>2012-05-13T08:51:06Z</time>
      </trkpt>
      <trkpt lat="44.79251" lon="1.57694">
        <ele>153.94836425781</ele>
        <time>2012-05-13T08:51:09Z</time>
      </trkpt>
      <trkpt lat="44.79255" lon="1.57689">
        <ele>153.94836425781</ele>
        <time>2012-05-13T08:51:15Z</time>
      </trkpt>
      <trkpt lat="44.79264" lon="1.57674">
        <ele>156.3515625</ele>
        <time>2012-05-13T08:51:29Z</time>
      </trkpt>
      <trkpt lat="44.7928" lon="1.5765">
        <ele>159.23547363281</ele>
        <time>2012-05-13T08:51:52Z</time>
      </trkpt>
      <trkpt lat="44.79287" lon="1.57639">
        <ele>160.19689941406</ele>
        <time>2012-05-13T08:52:03Z</time>
      </trkpt>
      <trkpt lat="44.79288" lon="1.57635">
        <ele>160.67749023438</ele>
        <time>2012-05-13T08:52:06Z</time>
      </trkpt>
      <trkpt lat="44.793" lon="1.57617">
        <ele>162.60009765625</ele>
        <time>2012-05-13T08:52:25Z</time>
      </trkpt>
      <trkpt lat="44.79314" lon="1.57594">
        <ele>164.52270507812</ele>
        <time>2012-05-13T08:52:48Z</time>
      </trkpt>
      <trkpt lat="44.79329" lon="1.57571">
        <ele>166.4453125</ele>
        <time>2012-05-13T08:53:09Z</time>
      </trkpt>
      <trkpt lat="44.79341" lon="1.57553">
        <ele>167.40673828125</ele>
        <time>2012-05-13T08:53:28Z</time>
      </trkpt>
      <trkpt lat="44.79345" lon="1.57547">
        <ele>168.36804199219</ele>
        <time>2012-05-13T08:53:34Z</time>
      </trkpt>
      <trkpt lat="44.79361" lon="1.5752">
        <ele>170.29064941406</ele>
        <time>2012-05-13T08:53:59Z</time>
      </trkpt>
      <trkpt lat="44.79372" lon="1.57509">
        <ele>172.69396972656</ele>
        <time>2012-05-13T08:54:15Z</time>
      </trkpt>
      <trkpt lat="44.79382" lon="1.57491">
        <ele>174.13586425781</ele>
        <time>2012-05-13T08:54:34Z</time>
      </trkpt>
      <trkpt lat="44.79393" lon="1.57475">
        <ele>176.05859375</ele>
        <time>2012-05-13T08:54:53Z</time>
      </trkpt>
      <trkpt lat="44.79402" lon="1.57455">
        <ele>177.50061035156</ele>
        <time>2012-05-13T08:55:10Z</time>
      </trkpt>
      <trkpt lat="44.79408" lon="1.57445">
        <ele>177.50061035156</ele>
        <time>2012-05-13T08:55:19Z</time>
      </trkpt>
      <trkpt lat="44.79414" lon="1.57429">
        <ele>178.4619140625</ele>
        <time>2012-05-13T08:55:32Z</time>
      </trkpt>
      <trkpt lat="44.79426" lon="1.57411">
        <ele>179.42321777344</ele>
        <time>2012-05-13T08:55:48Z</time>
      </trkpt>
      <trkpt lat="44.79439" lon="1.57396">
        <ele>180.38452148438</ele>
        <time>2012-05-13T08:56:04Z</time>
      </trkpt>
      <trkpt lat="44.79453" lon="1.5738">
        <ele>182.30712890625</ele>
        <time>2012-05-13T08:56:21Z</time>
      </trkpt>
      <trkpt lat="44.79469" lon="1.57367">
        <ele>182.78784179688</ele>
        <time>2012-05-13T08:56:40Z</time>
      </trkpt>
      <trkpt lat="44.79485" lon="1.57354">
        <ele>185.19116210938</ele>
        <time>2012-05-13T08:57:00Z</time>
      </trkpt>
      <trkpt lat="44.79498" lon="1.57346">
        <ele>186.63317871094</ele>
        <time>2012-05-13T08:57:22Z</time>
      </trkpt>
      <trkpt lat="44.79505" lon="1.57342">
        <ele>187.59436035156</ele>
        <time>2012-05-13T08:57:38Z</time>
      </trkpt>
      <trkpt lat="44.79507" lon="1.57341">
        <ele>187.59436035156</ele>
        <time>2012-05-13T08:57:40Z</time>
      </trkpt>
      <trkpt lat="44.79527" lon="1.5733">
        <ele>188.55578613281</ele>
        <time>2012-05-13T08:57:59Z</time>
      </trkpt>
      <trkpt lat="44.79544" lon="1.57319">
        <ele>189.51696777344</ele>
        <time>2012-05-13T08:58:17Z</time>
      </trkpt>
      <trkpt lat="44.79559" lon="1.57313">
        <ele>190.47839355469</ele>
        <time>2012-05-13T08:58:32Z</time>
      </trkpt>
      <trkpt lat="44.79578" lon="1.57312">
        <ele>192.40112304688</ele>
        <time>2012-05-13T08:58:52Z</time>
      </trkpt>
      <trkpt lat="44.79593" lon="1.57309">
        <ele>192.88171386719</ele>
        <time>2012-05-13T08:59:07Z</time>
      </trkpt>
      <trkpt lat="44.79609" lon="1.57301">
        <ele>191.43957519531</ele>
        <time>2012-05-13T08:59:23Z</time>
      </trkpt>
      <trkpt lat="44.79626" lon="1.57285">
        <ele>189.99768066406</ele>
        <time>2012-05-13T08:59:40Z</time>
      </trkpt>
      <trkpt lat="44.79642" lon="1.57266">
        <ele>189.03637695312</ele>
        <time>2012-05-13T09:00:00Z</time>
      </trkpt>
      <trkpt lat="44.7966" lon="1.57243">
        <ele>187.59436035156</ele>
        <time>2012-05-13T09:00:22Z</time>
      </trkpt>
      <trkpt lat="44.79662" lon="1.5724">
        <ele>187.59436035156</ele>
        <time>2012-05-13T09:00:25Z</time>
      </trkpt>
      <trkpt lat="44.79674" lon="1.57213">
        <ele>187.59436035156</ele>
        <time>2012-05-13T09:00:44Z</time>
      </trkpt>
      <trkpt lat="44.79689" lon="1.57182">
        <ele>188.55578613281</ele>
        <time>2012-05-13T09:01:07Z</time>
      </trkpt>
      <trkpt lat="44.79691" lon="1.57177">
        <ele>188.07507324219</ele>
        <time>2012-05-13T09:01:10Z</time>
      </trkpt>
      <trkpt lat="44.79701" lon="1.57152">
        <ele>188.07507324219</ele>
        <time>2012-05-13T09:01:26Z</time>
      </trkpt>
      <trkpt lat="44.79711" lon="1.57128">
        <ele>188.55578613281</ele>
        <time>2012-05-13T09:01:43Z</time>
      </trkpt>
      <trkpt lat="44.7972" lon="1.57101">
        <ele>189.03637695312</ele>
        <time>2012-05-13T09:02:01Z</time>
      </trkpt>
      <trkpt lat="44.79724" lon="1.57099">
        <ele>189.03637695312</ele>
        <time>2012-05-13T09:02:06Z</time>
      </trkpt>
      <trkpt lat="44.7973" lon="1.57101">
        <ele>189.03637695312</ele>
        <time>2012-05-13T09:02:11Z</time>
      </trkpt>
      <trkpt lat="44.79738" lon="1.57112">
        <ele>188.07507324219</ele>
        <time>2012-05-13T09:02:19Z</time>
      </trkpt>
      <trkpt lat="44.79743" lon="1.57134">
        <ele>184.71057128906</ele>
        <time>2012-05-13T09:02:36Z</time>
      </trkpt>
      <trkpt lat="44.79744" lon="1.57157">
        <ele>181.34582519531</ele>
        <time>2012-05-13T09:02:52Z</time>
      </trkpt>
      <trkpt lat="44.79745" lon="1.57177">
        <ele>178.94262695312</ele>
        <time>2012-05-13T09:03:07Z</time>
      </trkpt>
      <trkpt lat="44.79746" lon="1.572">
        <ele>176.05859375</ele>
        <time>2012-05-13T09:03:25Z</time>
      </trkpt>
      <trkpt lat="44.79748" lon="1.57221">
        <ele>172.69396972656</ele>
        <time>2012-05-13T09:03:43Z</time>
      </trkpt>
      <trkpt lat="44.79748" lon="1.57238">
        <ele>170.77136230469</ele>
        <time>2012-05-13T09:03:54Z</time>
      </trkpt>
      <trkpt lat="44.79745" lon="1.57255">
        <ele>168.36804199219</ele>
        <time>2012-05-13T09:04:07Z</time>
      </trkpt>
      <trkpt lat="44.79743" lon="1.57278">
        <ele>165.00341796875</ele>
        <time>2012-05-13T09:04:23Z</time>
      </trkpt>
      <trkpt lat="44.79738" lon="1.57298">
        <ele>162.60009765625</ele>
        <time>2012-05-13T09:04:37Z</time>
      </trkpt>
      <trkpt lat="44.79735" lon="1.57312">
        <ele>160.19689941406</ele>
        <time>2012-05-13T09:04:50Z</time>
      </trkpt>
      <trkpt lat="44.79734" lon="1.57326">
        <ele>158.75476074219</ele>
        <time>2012-05-13T09:04:59Z</time>
      </trkpt>
      <trkpt lat="44.79733" lon="1.57334">
        <ele>157.79357910156</ele>
        <time>2012-05-13T09:05:03Z</time>
      </trkpt>
      <trkpt lat="44.79733" lon="1.57343">
        <ele>156.83215332031</ele>
        <time>2012-05-13T09:05:10Z</time>
      </trkpt>
      <trkpt lat="44.79733" lon="1.57345">
        <ele>157.31286621094</ele>
        <time>2012-05-13T09:05:12Z</time>
      </trkpt>
      <trkpt lat="44.7973" lon="1.57353">
        <ele>156.3515625</ele>
        <time>2012-05-13T09:05:14Z</time>
      </trkpt>
      <trkpt lat="44.79731" lon="1.57373">
        <ele>154.42895507812</ele>
        <time>2012-05-13T09:05:28Z</time>
      </trkpt>
      <trkpt lat="44.79731" lon="1.57388">
        <ele>152.98693847656</ele>
        <time>2012-05-13T09:05:40Z</time>
      </trkpt>
      <trkpt lat="44.79732" lon="1.57405">
        <ele>151.06420898438</ele>
        <time>2012-05-13T09:05:53Z</time>
      </trkpt>
      <trkpt lat="44.79732" lon="1.57425">
        <ele>148.66101074219</ele>
        <time>2012-05-13T09:06:06Z</time>
      </trkpt>
      <trkpt lat="44.79736" lon="1.5744">
        <ele>146.73840332031</ele>
        <time>2012-05-13T09:06:18Z</time>
      </trkpt>
      <trkpt lat="44.79746" lon="1.57453">
        <ele>143.85437011719</ele>
        <time>2012-05-13T09:06:34Z</time>
      </trkpt>
      <trkpt lat="44.79759" lon="1.5746">
        <ele>140.48986816406</ele>
        <time>2012-05-13T09:06:49Z</time>
      </trkpt>
      <trkpt lat="44.79762" lon="1.57461">
        <ele>140.00915527344</ele>
        <time>2012-05-13T09:06:53Z</time>
      </trkpt>
      <trkpt lat="44.79766" lon="1.57462">
        <ele>138.56726074219</ele>
        <time>2012-05-13T09:06:58Z</time>
      </trkpt>
      <trkpt lat="44.79779" lon="1.57465">
        <ele>136.16394042969</ele>
        <time>2012-05-13T09:07:14Z</time>
      </trkpt>
      <trkpt lat="44.79792" lon="1.57473">
        <ele>134.2412109375</ele>
        <time>2012-05-13T09:07:30Z</time>
      </trkpt>
      <trkpt lat="44.79804" lon="1.5748">
        <ele>132.31860351562</ele>
        <time>2012-05-13T09:07:44Z</time>
      </trkpt>
      <trkpt lat="44.79821" lon="1.57483">
        <ele>131.837890625</ele>
        <time>2012-05-13T09:07:56Z</time>
      </trkpt>
      <trkpt lat="44.79821" lon="1.57484">
        <ele>131.837890625</ele>
        <time>2012-05-13T09:07:57Z</time>
      </trkpt>
      <trkpt lat="44.79825" lon="1.57487">
        <ele>131.837890625</ele>
        <time>2012-05-13T09:08:01Z</time>
      </trkpt>
      <trkpt lat="44.79834" lon="1.57491">
        <ele>133.27990722656</ele>
        <time>2012-05-13T09:08:14Z</time>
      </trkpt>
      <trkpt lat="44.79834" lon="1.57494">
        <ele>132.31860351562</ele>
        <time>2012-05-13T09:08:44Z</time>
      </trkpt>
      <trkpt lat="44.79834" lon="1.57494">
        <ele>132.31860351562</ele>
        <time>2012-05-13T09:09:34Z</time>
      </trkpt>
      <trkpt lat="44.79836" lon="1.57488">
        <ele>131.837890625</ele>
        <time>2012-05-13T09:11:00Z</time>
      </trkpt>
      <trkpt lat="44.79853" lon="1.57498">
        <ele>131.837890625</ele>
        <time>2012-05-13T09:17:55Z</time>
      </trkpt>
      <trkpt lat="44.79881" lon="1.57506">
        <ele>130.87670898438</ele>
        <time>2012-05-13T09:18:17Z</time>
      </trkpt>
      <trkpt lat="44.79898" lon="1.57513">
        <ele>128.9541015625</ele>
        <time>2012-05-13T09:18:32Z</time>
      </trkpt>
      <trkpt lat="44.79922" lon="1.57528">
        <ele>127.51196289062</ele>
        <time>2012-05-13T09:18:54Z</time>
      </trkpt>
      <trkpt lat="44.79925" lon="1.57529">
        <ele>127.51196289062</ele>
        <time>2012-05-13T09:18:56Z</time>
      </trkpt>
      <trkpt lat="44.79936" lon="1.57529">
        <ele>127.03137207031</ele>
        <time>2012-05-13T09:19:05Z</time>
      </trkpt>
      <trkpt lat="44.79955" lon="1.57526">
        <ele>127.03137207031</ele>
        <time>2012-05-13T09:19:24Z</time>
      </trkpt>
      <trkpt lat="44.79968" lon="1.57522">
        <ele>126.55065917969</ele>
        <time>2012-05-13T09:19:37Z</time>
      </trkpt>
      <trkpt lat="44.79982" lon="1.57515">
        <ele>126.06994628906</ele>
        <time>2012-05-13T09:19:50Z</time>
      </trkpt>
      <trkpt lat="44.80002" lon="1.57482">
        <ele>124.14733886719</ele>
        <time>2012-05-13T09:20:14Z</time>
      </trkpt>
      <trkpt lat="44.80021" lon="1.57466">
        <ele>122.70544433594</ele>
        <time>2012-05-13T09:20:35Z</time>
      </trkpt>
      <trkpt lat="44.80034" lon="1.57465">
        <ele>120.78283691406</ele>
        <time>2012-05-13T09:20:46Z</time>
      </trkpt>
      <trkpt lat="44.80045" lon="1.57503">
        <ele>117.89880371094</ele>
        <time>2012-05-13T09:21:11Z</time>
      </trkpt>
      <trkpt lat="44.80042" lon="1.57516">
        <ele>117.41821289062</ele>
        <time>2012-05-13T09:21:20Z</time>
      </trkpt>
      <trkpt lat="44.8004" lon="1.57524">
        <ele>116.9375</ele>
        <time>2012-05-13T09:21:23Z</time>
      </trkpt>
      <trkpt lat="44.80042" lon="1.5754">
        <ele>115.01489257812</ele>
        <time>2012-05-13T09:21:35Z</time>
      </trkpt>
      <trkpt lat="44.80039" lon="1.57569">
        <ele>112.61157226562</ele>
        <time>2012-05-13T09:21:53Z</time>
      </trkpt>
      <trkpt lat="44.80029" lon="1.57591">
        <ele>112.13098144531</ele>
        <time>2012-05-13T09:22:13Z</time>
      </trkpt>
      <trkpt lat="44.80025" lon="1.57608">
        <ele>112.61157226562</ele>
        <time>2012-05-13T09:22:31Z</time>
      </trkpt>
      <trkpt lat="44.80014" lon="1.57637">
        <ele>111.65026855469</ele>
        <time>2012-05-13T09:22:47Z</time>
      </trkpt>
      <trkpt lat="44.8001" lon="1.57642">
        <ele>111.16955566406</ele>
        <time>2012-05-13T09:22:53Z</time>
      </trkpt>
      <trkpt lat="44.80006" lon="1.57649">
        <ele>111.65026855469</ele>
        <time>2012-05-13T09:22:59Z</time>
      </trkpt>
      <trkpt lat="44.79999" lon="1.57663">
        <ele>111.16955566406</ele>
        <time>2012-05-13T09:23:11Z</time>
      </trkpt>
      <trkpt lat="44.79995" lon="1.57681">
        <ele>111.65026855469</ele>
        <time>2012-05-13T09:23:24Z</time>
      </trkpt>
      <trkpt lat="44.79995" lon="1.57685">
        <ele>111.16955566406</ele>
        <time>2012-05-13T09:23:26Z</time>
      </trkpt>
      <trkpt lat="44.79997" lon="1.57694">
        <ele>112.13098144531</ele>
        <time>2012-05-13T09:23:32Z</time>
      </trkpt>
      <trkpt lat="44.8001" lon="1.57714">
        <ele>115.49560546875</ele>
        <time>2012-05-13T09:23:53Z</time>
      </trkpt>
      <trkpt lat="44.80008" lon="1.57714">
        <ele>115.01489257812</ele>
        <time>2012-05-13T09:23:55Z</time>
      </trkpt>
      <trkpt lat="44.8002" lon="1.577">
        <ele>117.89880371094</ele>
        <time>2012-05-13T09:24:09Z</time>
      </trkpt>
      <trkpt lat="44.80039" lon="1.57685">
        <ele>119.3408203125</ele>
        <time>2012-05-13T09:24:30Z</time>
      </trkpt>
      <trkpt lat="44.80051" lon="1.57673">
        <ele>121.26354980469</ele>
        <time>2012-05-13T09:24:45Z</time>
      </trkpt>
      <trkpt lat="44.80061" lon="1.57668">
        <ele>122.70544433594</ele>
        <time>2012-05-13T09:24:57Z</time>
      </trkpt>
      <trkpt lat="44.80076" lon="1.57654">
        <ele>126.06994628906</ele>
        <time>2012-05-13T09:25:21Z</time>
      </trkpt>
      <trkpt lat="44.80088" lon="1.57647">
        <ele>128.47338867188</ele>
        <time>2012-05-13T09:25:37Z</time>
      </trkpt>
      <trkpt lat="44.80086" lon="1.57653">
        <ele>128.47338867188</ele>
        <time>2012-05-13T09:25:42Z</time>
      </trkpt>
      <trkpt lat="44.80078" lon="1.57669">
        <ele>128.9541015625</ele>
        <time>2012-05-13T09:25:56Z</time>
      </trkpt>
      <trkpt lat="44.80072" lon="1.57695">
        <ele>129.43469238281</ele>
        <time>2012-05-13T09:26:14Z</time>
      </trkpt>
      <trkpt lat="44.8007" lon="1.57715">
        <ele>130.39599609375</ele>
        <time>2012-05-13T09:26:31Z</time>
      </trkpt>
      <trkpt lat="44.80067" lon="1.57737">
        <ele>130.87670898438</ele>
        <time>2012-05-13T09:26:44Z</time>
      </trkpt>
      <trkpt lat="44.80067" lon="1.57753">
        <ele>131.837890625</ele>
        <time>2012-05-13T09:26:55Z</time>
      </trkpt>
      <trkpt lat="44.80066" lon="1.57758">
        <ele>131.837890625</ele>
        <time>2012-05-13T09:26:57Z</time>
      </trkpt>
      <trkpt lat="44.80064" lon="1.57772">
        <ele>131.837890625</ele>
        <time>2012-05-13T09:27:05Z</time>
      </trkpt>
      <trkpt lat="44.80062" lon="1.5779">
        <ele>132.31860351562</ele>
        <time>2012-05-13T09:27:16Z</time>
      </trkpt>
      <trkpt lat="44.80061" lon="1.57796">
        <ele>132.31860351562</ele>
        <time>2012-05-13T09:27:20Z</time>
      </trkpt>
      <trkpt lat="44.80056" lon="1.57828">
        <ele>132.79931640625</ele>
        <time>2012-05-13T09:27:39Z</time>
      </trkpt>
      <trkpt lat="44.80055" lon="1.5785">
        <ele>133.76049804688</ele>
        <time>2012-05-13T09:27:54Z</time>
      </trkpt>
      <trkpt lat="44.80053" lon="1.57877">
        <ele>134.72192382812</ele>
        <time>2012-05-13T09:28:11Z</time>
      </trkpt>
      <trkpt lat="44.80053" lon="1.57883">
        <ele>134.72192382812</ele>
        <time>2012-05-13T09:28:16Z</time>
      </trkpt>
      <trkpt lat="44.80054" lon="1.57886">
        <ele>134.2412109375</ele>
        <time>2012-05-13T09:28:18Z</time>
      </trkpt>
      <trkpt lat="44.80056" lon="1.57894">
        <ele>134.2412109375</ele>
        <time>2012-05-13T09:28:23Z</time>
      </trkpt>
      <trkpt lat="44.80059" lon="1.57899">
        <ele>134.72192382812</ele>
        <time>2012-05-13T09:28:27Z</time>
      </trkpt>
      <trkpt lat="44.8006" lon="1.57902">
        <ele>135.68310546875</ele>
        <time>2012-05-13T09:28:29Z</time>
      </trkpt>
      <trkpt lat="44.80061" lon="1.57904">
        <ele>135.20251464844</ele>
        <time>2012-05-13T09:28:31Z</time>
      </trkpt>
      <trkpt lat="44.80067" lon="1.57911">
        <ele>135.20251464844</ele>
        <time>2012-05-13T09:28:39Z</time>
      </trkpt>
      <trkpt lat="44.80069" lon="1.57915">
        <ele>134.72192382812</ele>
        <time>2012-05-13T09:28:41Z</time>
      </trkpt>
      <trkpt lat="44.80072" lon="1.5792">
        <ele>135.68310546875</ele>
        <time>2012-05-13T09:28:46Z</time>
      </trkpt>
      <trkpt lat="44.80078" lon="1.57928">
        <ele>135.68310546875</ele>
        <time>2012-05-13T09:28:59Z</time>
      </trkpt>
      <trkpt lat="44.80085" lon="1.5794">
        <ele>136.64465332031</ele>
        <time>2012-05-13T09:29:11Z</time>
      </trkpt>
      <trkpt lat="44.80091" lon="1.5795">
        <ele>137.12524414062</ele>
        <time>2012-05-13T09:29:23Z</time>
      </trkpt>
      <trkpt lat="44.80098" lon="1.57957">
        <ele>138.56726074219</ele>
        <time>2012-05-13T09:29:32Z</time>
      </trkpt>
      <trkpt lat="44.80104" lon="1.5796">
        <ele>139.0478515625</ele>
        <time>2012-05-13T09:29:36Z</time>
      </trkpt>
      <trkpt lat="44.80112" lon="1.57973">
        <ele>140.97045898438</ele>
        <time>2012-05-13T09:29:50Z</time>
      </trkpt>
      <trkpt lat="44.80113" lon="1.57974">
        <ele>140.97045898438</ele>
        <time>2012-05-13T09:29:51Z</time>
      </trkpt>
      <trkpt lat="44.80109" lon="1.57993">
        <ele>141.93176269531</ele>
        <time>2012-05-13T09:30:05Z</time>
      </trkpt>
      <trkpt lat="44.80101" lon="1.57996">
        <ele>143.37365722656</ele>
        <time>2012-05-13T09:30:18Z</time>
      </trkpt>
      <trkpt lat="44.80094" lon="1.57996">
        <ele>144.33520507812</ele>
        <time>2012-05-13T09:30:25Z</time>
      </trkpt>
      <trkpt lat="44.80084" lon="1.57997">
        <ele>145.29638671875</ele>
        <time>2012-05-13T09:30:35Z</time>
      </trkpt>
      <trkpt lat="44.80081" lon="1.57997">
        <ele>145.29638671875</ele>
        <time>2012-05-13T09:30:37Z</time>
      </trkpt>
      <trkpt lat="44.80076" lon="1.57999">
        <ele>146.73840332031</ele>
        <time>2012-05-13T09:30:43Z</time>
      </trkpt>
      <trkpt lat="44.80068" lon="1.58011">
        <ele>147.69970703125</ele>
        <time>2012-05-13T09:30:56Z</time>
      </trkpt>
      <trkpt lat="44.80062" lon="1.58027">
        <ele>149.62231445312</ele>
        <time>2012-05-13T09:31:10Z</time>
      </trkpt>
      <trkpt lat="44.80052" lon="1.58053">
        <ele>151.06420898438</ele>
        <time>2012-05-13T09:31:29Z</time>
      </trkpt>
      <trkpt lat="44.80052" lon="1.58064">
        <ele>152.50634765625</ele>
        <time>2012-05-13T09:31:39Z</time>
      </trkpt>
      <trkpt lat="44.8005" lon="1.58081">
        <ele>153.94836425781</ele>
        <time>2012-05-13T09:31:52Z</time>
      </trkpt>
      <trkpt lat="44.8005" lon="1.58083">
        <ele>153.94836425781</ele>
        <time>2012-05-13T09:31:53Z</time>
      </trkpt>
      <trkpt lat="44.8005" lon="1.58092">
        <ele>154.90954589844</ele>
        <time>2012-05-13T09:32:01Z</time>
      </trkpt>
      <trkpt lat="44.8005" lon="1.581">
        <ele>154.90954589844</ele>
        <time>2012-05-13T09:32:07Z</time>
      </trkpt>
      <trkpt lat="44.80047" lon="1.58127">
        <ele>157.31286621094</ele>
        <time>2012-05-13T09:32:28Z</time>
      </trkpt>
      <trkpt lat="44.8005" lon="1.58134">
        <ele>158.75476074219</ele>
        <time>2012-05-13T09:32:38Z</time>
      </trkpt>
      <trkpt lat="44.80045" lon="1.58152">
        <ele>160.19689941406</ele>
        <time>2012-05-13T09:32:53Z</time>
      </trkpt>
      <trkpt lat="44.80045" lon="1.58169">
        <ele>161.63891601562</ele>
        <time>2012-05-13T09:33:08Z</time>
      </trkpt>
      <trkpt lat="44.80043" lon="1.5819">
        <ele>164.04211425781</ele>
        <time>2012-05-13T09:33:25Z</time>
      </trkpt>
      <trkpt lat="44.80038" lon="1.5821">
        <ele>165.00341796875</ele>
        <time>2012-05-13T09:33:32Z</time>
      </trkpt>
      <trkpt lat="44.80038" lon="1.58211">
        <ele>165.00341796875</ele>
        <time>2012-05-13T09:33:34Z</time>
      </trkpt>
      <trkpt lat="44.80038" lon="1.58211">
        <ele>166.4453125</ele>
        <time>2012-05-13T09:33:47Z</time>
      </trkpt>
      <trkpt lat="44.80038" lon="1.58232">
        <ele>167.40673828125</ele>
        <time>2012-05-13T09:33:59Z</time>
      </trkpt>
      <trkpt lat="44.80038" lon="1.58232">
        <ele>168.84875488281</ele>
        <time>2012-05-13T09:34:11Z</time>
      </trkpt>
      <trkpt lat="44.80038" lon="1.58232">
        <ele>171.25207519531</ele>
        <time>2012-05-13T09:34:31Z</time>
      </trkpt>
      <trkpt lat="44.80038" lon="1.5827">
        <ele>171.25207519531</ele>
        <time>2012-05-13T09:34:32Z</time>
      </trkpt>
      <trkpt lat="44.80039" lon="1.58284">
        <ele>172.69396972656</ele>
        <time>2012-05-13T09:34:44Z</time>
      </trkpt>
      <trkpt lat="44.80042" lon="1.58301">
        <ele>173.6552734375</ele>
        <time>2012-05-13T09:34:56Z</time>
      </trkpt>
      <trkpt lat="44.80042" lon="1.58301">
        <ele>173.6552734375</ele>
        <time>2012-05-13T09:34:58Z</time>
      </trkpt>
      <trkpt lat="44.80044" lon="1.58305">
        <ele>174.61657714844</ele>
        <time>2012-05-13T09:35:02Z</time>
      </trkpt>
      <trkpt lat="44.80047" lon="1.58314">
        <ele>175.57788085938</ele>
        <time>2012-05-13T09:35:08Z</time>
      </trkpt>
      <trkpt lat="44.80055" lon="1.58322">
        <ele>176.05859375</ele>
        <time>2012-05-13T09:35:19Z</time>
      </trkpt>
      <trkpt lat="44.80061" lon="1.58339">
        <ele>178.4619140625</ele>
        <time>2012-05-13T09:35:34Z</time>
      </trkpt>
      <trkpt lat="44.80069" lon="1.58348">
        <ele>179.42321777344</ele>
        <time>2012-05-13T09:35:44Z</time>
      </trkpt>
      <trkpt lat="44.80071" lon="1.5835">
        <ele>179.90380859375</ele>
        <time>2012-05-13T09:35:47Z</time>
      </trkpt>
      <trkpt lat="44.80073" lon="1.58356">
        <ele>180.865234375</ele>
        <time>2012-05-13T09:35:53Z</time>
      </trkpt>
      <trkpt lat="44.80074" lon="1.58359">
        <ele>181.34582519531</ele>
        <time>2012-05-13T09:35:55Z</time>
      </trkpt>
      <trkpt lat="44.80084" lon="1.58369">
        <ele>182.30712890625</ele>
        <time>2012-05-13T09:36:10Z</time>
      </trkpt>
      <trkpt lat="44.80096" lon="1.58375">
        <ele>183.7490234375</ele>
        <time>2012-05-13T09:36:24Z</time>
      </trkpt>
      <trkpt lat="44.80102" lon="1.58383">
        <ele>184.71057128906</ele>
        <time>2012-05-13T09:36:33Z</time>
      </trkpt>
      <trkpt lat="44.80113" lon="1.58391">
        <ele>186.63317871094</ele>
        <time>2012-05-13T09:36:46Z</time>
      </trkpt>
      <trkpt lat="44.80128" lon="1.58404">
        <ele>187.11376953125</ele>
        <time>2012-05-13T09:37:04Z</time>
      </trkpt>
      <trkpt lat="44.80129" lon="1.58413">
        <ele>187.59436035156</ele>
        <time>2012-05-13T09:37:10Z</time>
      </trkpt>
      <trkpt lat="44.80129" lon="1.58419">
        <ele>187.11376953125</ele>
        <time>2012-05-13T09:37:14Z</time>
      </trkpt>
      <trkpt lat="44.80134" lon="1.58427">
        <ele>186.63317871094</ele>
        <time>2012-05-13T09:37:20Z</time>
      </trkpt>
      <trkpt lat="44.80145" lon="1.5844">
        <ele>185.19116210938</ele>
        <time>2012-05-13T09:37:34Z</time>
      </trkpt>
      <trkpt lat="44.80154" lon="1.58447">
        <ele>184.22985839844</ele>
        <time>2012-05-13T09:37:46Z</time>
      </trkpt>
      <trkpt lat="44.80167" lon="1.58458">
        <ele>182.30712890625</ele>
        <time>2012-05-13T09:38:01Z</time>
      </trkpt>
      <trkpt lat="44.80171" lon="1.58459">
        <ele>181.82641601562</ele>
        <time>2012-05-13T09:38:04Z</time>
      </trkpt>
      <trkpt lat="44.80182" lon="1.58464">
        <ele>180.865234375</ele>
        <time>2012-05-13T09:38:15Z</time>
      </trkpt>
      <trkpt lat="44.802" lon="1.58475">
        <ele>180.38452148438</ele>
        <time>2012-05-13T09:38:32Z</time>
      </trkpt>
      <trkpt lat="44.80215" lon="1.58486">
        <ele>179.42321777344</ele>
        <time>2012-05-13T09:38:51Z</time>
      </trkpt>
      <trkpt lat="44.80227" lon="1.5849">
        <ele>177.02001953125</ele>
        <time>2012-05-13T09:39:08Z</time>
      </trkpt>
      <trkpt lat="44.80244" lon="1.58499">
        <ele>175.09729003906</ele>
        <time>2012-05-13T09:39:24Z</time>
      </trkpt>
      <trkpt lat="44.80255" lon="1.58511">
        <ele>173.6552734375</ele>
        <time>2012-05-13T09:39:41Z</time>
      </trkpt>
      <trkpt lat="44.80279" lon="1.58524">
        <ele>171.73266601562</ele>
        <time>2012-05-13T09:39:59Z</time>
      </trkpt>
      <trkpt lat="44.80299" lon="1.58527">
        <ele>171.25207519531</ele>
        <time>2012-05-13T09:40:11Z</time>
      </trkpt>
      <trkpt lat="44.80315" lon="1.58533">
        <ele>168.84875488281</ele>
        <time>2012-05-13T09:40:28Z</time>
      </trkpt>
      <trkpt lat="44.80327" lon="1.58541">
        <ele>166.92602539062</ele>
        <time>2012-05-13T09:40:44Z</time>
      </trkpt>
      <trkpt lat="44.80337" lon="1.58546">
        <ele>163.5615234375</ele>
        <time>2012-05-13T09:40:59Z</time>
      </trkpt>
      <trkpt lat="44.80343" lon="1.58548">
        <ele>162.60009765625</ele>
        <time>2012-05-13T09:41:05Z</time>
      </trkpt>
      <trkpt lat="44.80355" lon="1.58559">
        <ele>161.158203125</ele>
        <time>2012-05-13T09:41:13Z</time>
      </trkpt>
      <trkpt lat="44.80369" lon="1.58576">
        <ele>160.19689941406</ele>
        <time>2012-05-13T09:41:29Z</time>
      </trkpt>
      <trkpt lat="44.80378" lon="1.58587">
        <ele>160.19689941406</ele>
        <time>2012-05-13T09:41:46Z</time>
      </trkpt>
      <trkpt lat="44.80379" lon="1.58588">
        <ele>159.71618652344</ele>
        <time>2012-05-13T09:41:47Z</time>
      </trkpt>
      <trkpt lat="44.80385" lon="1.58597">
        <ele>159.23547363281</ele>
        <time>2012-05-13T09:41:54Z</time>
      </trkpt>
      <trkpt lat="44.80398" lon="1.58615">
        <ele>158.75476074219</ele>
        <time>2012-05-13T09:42:10Z</time>
      </trkpt>
      <trkpt lat="44.80398" lon="1.58617">
        <ele>158.75476074219</ele>
        <time>2012-05-13T09:42:11Z</time>
      </trkpt>
      <trkpt lat="44.80409" lon="1.58636">
        <ele>158.27416992188</ele>
        <time>2012-05-13T09:42:28Z</time>
      </trkpt>
      <trkpt lat="44.80415" lon="1.5864">
        <ele>158.75476074219</ele>
        <time>2012-05-13T09:42:39Z</time>
      </trkpt>
      <trkpt lat="44.80421" lon="1.5865">
        <ele>158.27416992188</ele>
        <time>2012-05-13T09:43:11Z</time>
      </trkpt>
      <trkpt lat="44.80428" lon="1.58663">
        <ele>157.79357910156</ele>
        <time>2012-05-13T09:43:22Z</time>
      </trkpt>
      <trkpt lat="44.80444" lon="1.58683">
        <ele>158.27416992188</ele>
        <time>2012-05-13T09:43:40Z</time>
      </trkpt>
      <trkpt lat="44.80446" lon="1.58686">
        <ele>158.27416992188</ele>
        <time>2012-05-13T09:43:43Z</time>
      </trkpt>
      <trkpt lat="44.80449" lon="1.5869">
        <ele>158.27416992188</ele>
        <time>2012-05-13T09:43:48Z</time>
      </trkpt>
      <trkpt lat="44.80461" lon="1.58699">
        <ele>157.31286621094</ele>
        <time>2012-05-13T09:43:59Z</time>
      </trkpt>
      <trkpt lat="44.80465" lon="1.58705">
        <ele>156.3515625</ele>
        <time>2012-05-13T09:44:04Z</time>
      </trkpt>
      <trkpt lat="44.80468" lon="1.58714">
        <ele>156.3515625</ele>
        <time>2012-05-13T09:44:08Z</time>
      </trkpt>
      <trkpt lat="44.80478" lon="1.58728">
        <ele>154.90954589844</ele>
        <time>2012-05-13T09:44:19Z</time>
      </trkpt>
      <trkpt lat="44.80481" lon="1.58734">
        <ele>153.46765136719</ele>
        <time>2012-05-13T09:44:26Z</time>
      </trkpt>
      <trkpt lat="44.80485" lon="1.58743">
        <ele>152.98693847656</ele>
        <time>2012-05-13T09:44:33Z</time>
      </trkpt>
      <trkpt lat="44.80486" lon="1.5875">
        <ele>151.544921875</ele>
        <time>2012-05-13T09:44:36Z</time>
      </trkpt>
      <trkpt lat="44.80498" lon="1.58754">
        <ele>151.544921875</ele>
        <time>2012-05-13T09:44:42Z</time>
      </trkpt>
      <trkpt lat="44.80524" lon="1.58774">
        <ele>149.62231445312</ele>
        <time>2012-05-13T09:45:02Z</time>
      </trkpt>
      <trkpt lat="44.80526" lon="1.58776">
        <ele>150.10302734375</ele>
        <time>2012-05-13T09:45:05Z</time>
      </trkpt>
      <trkpt lat="44.80527" lon="1.58778">
        <ele>149.1416015625</ele>
        <time>2012-05-13T09:45:07Z</time>
      </trkpt>
      <trkpt lat="44.80542" lon="1.58791">
        <ele>148.66101074219</ele>
        <time>2012-05-13T09:45:23Z</time>
      </trkpt>
      <trkpt lat="44.80545" lon="1.58793">
        <ele>148.66101074219</ele>
        <time>2012-05-13T09:45:25Z</time>
      </trkpt>
      <trkpt lat="44.8056" lon="1.58802">
        <ele>148.18041992188</ele>
        <time>2012-05-13T09:45:41Z</time>
      </trkpt>
      <trkpt lat="44.80581" lon="1.58808">
        <ele>147.69970703125</ele>
        <time>2012-05-13T09:45:58Z</time>
      </trkpt>
      <trkpt lat="44.80582" lon="1.5881">
        <ele>147.69970703125</ele>
        <time>2012-05-13T09:46:00Z</time>
      </trkpt>
      <trkpt lat="44.80587" lon="1.58819">
        <ele>147.69970703125</ele>
        <time>2012-05-13T09:46:07Z</time>
      </trkpt>
      <trkpt lat="44.80588" lon="1.58828">
        <ele>147.69970703125</ele>
        <time>2012-05-13T09:46:13Z</time>
      </trkpt>
      <trkpt lat="44.80588" lon="1.58835">
        <ele>147.69970703125</ele>
        <time>2012-05-13T09:46:19Z</time>
      </trkpt>
      <trkpt lat="44.8059" lon="1.58859">
        <ele>150.10302734375</ele>
        <time>2012-05-13T09:46:40Z</time>
      </trkpt>
      <trkpt lat="44.80592" lon="1.58875">
        <ele>152.02575683594</ele>
        <time>2012-05-13T09:47:03Z</time>
      </trkpt>
      <trkpt lat="44.80592" lon="1.58876">
        <ele>151.544921875</ele>
        <time>2012-05-13T09:47:28Z</time>
      </trkpt>
      <trkpt lat="44.80606" lon="1.58869">
        <ele>154.90954589844</ele>
        <time>2012-05-13T09:48:25Z</time>
      </trkpt>
      <trkpt lat="44.80623" lon="1.58869">
        <ele>158.27416992188</ele>
        <time>2012-05-13T09:48:46Z</time>
      </trkpt>
      <trkpt lat="44.80626" lon="1.58871">
        <ele>158.27416992188</ele>
        <time>2012-05-13T09:48:49Z</time>
      </trkpt>
      <trkpt lat="44.80642" lon="1.58879">
        <ele>162.11950683594</ele>
        <time>2012-05-13T09:49:13Z</time>
      </trkpt>
      <trkpt lat="44.80656" lon="1.58884">
        <ele>164.52270507812</ele>
        <time>2012-05-13T09:49:31Z</time>
      </trkpt>
      <trkpt lat="44.80661" lon="1.58889">
        <ele>165.96472167969</ele>
        <time>2012-05-13T09:49:44Z</time>
      </trkpt>
      <trkpt lat="44.8067" lon="1.58895">
        <ele>168.36804199219</ele>
        <time>2012-05-13T09:50:01Z</time>
      </trkpt>
      <trkpt lat="44.80679" lon="1.589">
        <ele>170.77136230469</ele>
        <time>2012-05-13T09:50:18Z</time>
      </trkpt>
      <trkpt lat="44.80683" lon="1.58902">
        <ele>170.77136230469</ele>
        <time>2012-05-13T09:50:26Z</time>
      </trkpt>
      <trkpt lat="44.80685" lon="1.58906">
        <ele>171.25207519531</ele>
        <time>2012-05-13T09:50:30Z</time>
      </trkpt>
      <trkpt lat="44.80689" lon="1.5891">
        <ele>171.73266601562</ele>
        <time>2012-05-13T09:50:34Z</time>
      </trkpt>
      <trkpt lat="44.80693" lon="1.58911">
        <ele>171.73266601562</ele>
        <time>2012-05-13T09:50:38Z</time>
      </trkpt>
      <trkpt lat="44.80704" lon="1.58917">
        <ele>172.69396972656</ele>
        <time>2012-05-13T09:50:51Z</time>
      </trkpt>
      <trkpt lat="44.8071" lon="1.58923">
        <ele>173.6552734375</ele>
        <time>2012-05-13T09:51:01Z</time>
      </trkpt>
      <trkpt lat="44.80719" lon="1.58929">
        <ele>174.61657714844</ele>
        <time>2012-05-13T09:51:11Z</time>
      </trkpt>
      <trkpt lat="44.8073" lon="1.58941">
        <ele>176.53930664062</ele>
        <time>2012-05-13T09:51:27Z</time>
      </trkpt>
      <trkpt lat="44.80731" lon="1.58943">
        <ele>176.53930664062</ele>
        <time>2012-05-13T09:51:29Z</time>
      </trkpt>
      <trkpt lat="44.80742" lon="1.58956">
        <ele>177.98120117188</ele>
        <time>2012-05-13T09:51:44Z</time>
      </trkpt>
      <trkpt lat="44.80744" lon="1.58959">
        <ele>178.4619140625</ele>
        <time>2012-05-13T09:51:49Z</time>
      </trkpt>
      <trkpt lat="44.8075" lon="1.58976">
        <ele>180.865234375</ele>
        <time>2012-05-13T09:52:05Z</time>
      </trkpt>
      <trkpt lat="44.8075" lon="1.58978">
        <ele>180.865234375</ele>
        <time>2012-05-13T09:52:07Z</time>
      </trkpt>
      <trkpt lat="44.80754" lon="1.58994">
        <ele>182.78784179688</ele>
        <time>2012-05-13T09:52:22Z</time>
      </trkpt>
      <trkpt lat="44.80756" lon="1.59013">
        <ele>184.22985839844</ele>
        <time>2012-05-13T09:52:36Z</time>
      </trkpt>
      <trkpt lat="44.80756" lon="1.59021">
        <ele>185.67175292969</ele>
        <time>2012-05-13T09:52:48Z</time>
      </trkpt>
      <trkpt lat="44.80756" lon="1.59032">
        <ele>187.11376953125</ele>
        <time>2012-05-13T09:53:01Z</time>
      </trkpt>
      <trkpt lat="44.80753" lon="1.59049">
        <ele>188.07507324219</ele>
        <time>2012-05-13T09:53:15Z</time>
      </trkpt>
      <trkpt lat="44.80748" lon="1.59062">
        <ele>189.99768066406</ele>
        <time>2012-05-13T09:53:29Z</time>
      </trkpt>
      <trkpt lat="44.80744" lon="1.59065">
        <ele>190.958984375</ele>
        <time>2012-05-13T09:53:36Z</time>
      </trkpt>
      <trkpt lat="44.80736" lon="1.59063">
        <ele>192.40112304688</ele>
        <time>2012-05-13T09:53:51Z</time>
      </trkpt>
      <trkpt lat="44.80728" lon="1.59058">
        <ele>194.32373046875</ele>
        <time>2012-05-13T09:54:05Z</time>
      </trkpt>
      <trkpt lat="44.80725" lon="1.59053">
        <ele>195.765625</ele>
        <time>2012-05-13T09:54:23Z</time>
      </trkpt>
      <trkpt lat="44.80716" lon="1.59046">
        <ele>197.20751953125</ele>
        <time>2012-05-13T09:54:39Z</time>
      </trkpt>
      <trkpt lat="44.80707" lon="1.59041">
        <ele>199.61083984375</ele>
        <time>2012-05-13T09:54:55Z</time>
      </trkpt>
      <trkpt lat="44.80697" lon="1.59034">
        <ele>202.01428222656</ele>
        <time>2012-05-13T09:55:12Z</time>
      </trkpt>
      <trkpt lat="44.80684" lon="1.59029">
        <ele>204.41748046875</ele>
        <time>2012-05-13T09:55:33Z</time>
      </trkpt>
      <trkpt lat="44.80682" lon="1.59028">
        <ele>204.89807128906</ele>
        <time>2012-05-13T09:55:37Z</time>
      </trkpt>
      <trkpt lat="44.80674" lon="1.59027">
        <ele>206.82067871094</ele>
        <time>2012-05-13T09:55:49Z</time>
      </trkpt>
      <trkpt lat="44.80668" lon="1.59028">
        <ele>208.26281738281</ele>
        <time>2012-05-13T09:56:13Z</time>
      </trkpt>
      <trkpt lat="44.80659" lon="1.5903">
        <ele>210.666015625</ele>
        <time>2012-05-13T09:56:36Z</time>
      </trkpt>
      <trkpt lat="44.80653" lon="1.59034">
        <ele>213.0693359375</ele>
        <time>2012-05-13T09:56:59Z</time>
      </trkpt>
      <trkpt lat="44.80649" lon="1.59037">
        <ele>213.55004882812</ele>
        <time>2012-05-13T09:57:12Z</time>
      </trkpt>
      <trkpt lat="44.80646" lon="1.59046">
        <ele>217.39538574219</ele>
        <time>2012-05-13T09:57:32Z</time>
      </trkpt>
      <trkpt lat="44.80639" lon="1.59055">
        <ele>219.79858398438</ele>
        <time>2012-05-13T09:57:48Z</time>
      </trkpt>
      <trkpt lat="44.80634" lon="1.59059">
        <ele>220.75988769531</ele>
        <time>2012-05-13T09:58:02Z</time>
      </trkpt>
      <trkpt lat="44.80625" lon="1.59074">
        <ele>224.12451171875</ele>
        <time>2012-05-13T09:58:22Z</time>
      </trkpt>
      <trkpt lat="44.80621" lon="1.59081">
        <ele>225.56652832031</ele>
        <time>2012-05-13T09:58:41Z</time>
      </trkpt>
      <trkpt lat="44.80617" lon="1.59082">
        <ele>226.52783203125</ele>
        <time>2012-05-13T09:58:45Z</time>
      </trkpt>
      <trkpt lat="44.80613" lon="1.5909">
        <ele>227.00854492188</ele>
        <time>2012-05-13T09:58:56Z</time>
      </trkpt>
      <trkpt lat="44.80606" lon="1.59105">
        <ele>229.89233398438</ele>
        <time>2012-05-13T09:59:17Z</time>
      </trkpt>
      <trkpt lat="44.80606" lon="1.59107">
        <ele>230.373046875</ele>
        <time>2012-05-13T09:59:30Z</time>
      </trkpt>
      <trkpt lat="44.80605" lon="1.59117">
        <ele>231.33435058594</ele>
        <time>2012-05-13T09:59:44Z</time>
      </trkpt>
      <trkpt lat="44.80603" lon="1.59135">
        <ele>233.73767089844</ele>
        <time>2012-05-13T09:59:59Z</time>
      </trkpt>
      <trkpt lat="44.80603" lon="1.59141">
        <ele>234.21838378906</ele>
        <time>2012-05-13T10:00:05Z</time>
      </trkpt>
      <trkpt lat="44.80604" lon="1.59157">
        <ele>235.1796875</ele>
        <time>2012-05-13T10:00:21Z</time>
      </trkpt>
      <trkpt lat="44.80602" lon="1.59177">
        <ele>237.58288574219</ele>
        <time>2012-05-13T10:00:39Z</time>
      </trkpt>
      <trkpt lat="44.80601" lon="1.5918">
        <ele>237.10229492188</ele>
        <time>2012-05-13T10:00:42Z</time>
      </trkpt>
      <trkpt lat="44.806" lon="1.59184">
        <ele>237.58288574219</ele>
        <time>2012-05-13T10:00:45Z</time>
      </trkpt>
      <trkpt lat="44.80596" lon="1.59196">
        <ele>238.54431152344</ele>
        <time>2012-05-13T10:00:55Z</time>
      </trkpt>
      <trkpt lat="44.80594" lon="1.59207">
        <ele>239.50549316406</ele>
        <time>2012-05-13T10:01:07Z</time>
      </trkpt>
      <trkpt lat="44.80594" lon="1.5922">
        <ele>240.94763183594</ele>
        <time>2012-05-13T10:01:19Z</time>
      </trkpt>
      <trkpt lat="44.80591" lon="1.59236">
        <ele>241.42822265625</ele>
        <time>2012-05-13T10:01:33Z</time>
      </trkpt>
      <trkpt lat="44.8059" lon="1.59249">
        <ele>242.87023925781</ele>
        <time>2012-05-13T10:01:45Z</time>
      </trkpt>
      <trkpt lat="44.80583" lon="1.59281">
        <ele>244.31225585938</ele>
        <time>2012-05-13T10:02:08Z</time>
      </trkpt>
      <trkpt lat="44.80579" lon="1.59308">
        <ele>246.23486328125</ele>
        <time>2012-05-13T10:02:29Z</time>
      </trkpt>
      <trkpt lat="44.80576" lon="1.59332">
        <ele>247.19604492188</ele>
        <time>2012-05-13T10:02:47Z</time>
      </trkpt>
      <trkpt lat="44.80569" lon="1.59359">
        <ele>249.11877441406</ele>
        <time>2012-05-13T10:03:08Z</time>
      </trkpt>
      <trkpt lat="44.80561" lon="1.59375">
        <ele>250.56079101562</ele>
        <time>2012-05-13T10:03:22Z</time>
      </trkpt>
      <trkpt lat="44.8055" lon="1.59389">
        <ele>251.52209472656</ele>
        <time>2012-05-13T10:03:37Z</time>
      </trkpt>
      <trkpt lat="44.80536" lon="1.59414">
        <ele>252.4833984375</ele>
        <time>2012-05-13T10:03:59Z</time>
      </trkpt>
      <trkpt lat="44.80522" lon="1.59439">
        <ele>254.40600585938</ele>
        <time>2012-05-13T10:04:20Z</time>
      </trkpt>
      <trkpt lat="44.8051" lon="1.5946">
        <ele>255.36730957031</ele>
        <time>2012-05-13T10:04:38Z</time>
      </trkpt>
      <trkpt lat="44.80493" lon="1.59477">
        <ele>256.80932617188</ele>
        <time>2012-05-13T10:04:58Z</time>
      </trkpt>
      <trkpt lat="44.80482" lon="1.59489">
        <ele>257.77075195312</ele>
        <time>2012-05-13T10:05:12Z</time>
      </trkpt>
      <trkpt lat="44.80473" lon="1.59498">
        <ele>258.25134277344</ele>
        <time>2012-05-13T10:05:24Z</time>
      </trkpt>
      <trkpt lat="44.80463" lon="1.5951">
        <ele>258.73193359375</ele>
        <time>2012-05-13T10:05:36Z</time>
      </trkpt>
      <trkpt lat="44.80454" lon="1.59518">
        <ele>259.21264648438</ele>
        <time>2012-05-13T10:05:47Z</time>
      </trkpt>
      <trkpt lat="44.80451" lon="1.59519">
        <ele>259.693359375</ele>
        <time>2012-05-13T10:05:50Z</time>
      </trkpt>
      <trkpt lat="44.80449" lon="1.59521">
        <ele>259.21264648438</ele>
        <time>2012-05-13T10:05:52Z</time>
      </trkpt>
      <trkpt lat="44.80441" lon="1.5953">
        <ele>259.693359375</ele>
        <time>2012-05-13T10:06:04Z</time>
      </trkpt>
      <trkpt lat="44.80433" lon="1.59541">
        <ele>259.693359375</ele>
        <time>2012-05-13T10:06:16Z</time>
      </trkpt>
      <trkpt lat="44.80431" lon="1.59549">
        <ele>260.17395019531</ele>
        <time>2012-05-13T10:06:38Z</time>
      </trkpt>
      <trkpt lat="44.80433" lon="1.59554">
        <ele>260.65454101562</ele>
        <time>2012-05-13T10:06:53Z</time>
      </trkpt>
      <trkpt lat="44.80432" lon="1.59576">
        <ele>261.13525390625</ele>
        <time>2012-05-13T10:08:38Z</time>
      </trkpt>
      <trkpt lat="44.80433" lon="1.59601">
        <ele>261.61596679688</ele>
        <time>2012-05-13T10:08:54Z</time>
      </trkpt>
      <trkpt lat="44.80431" lon="1.5962">
        <ele>262.09655761719</ele>
        <time>2012-05-13T10:09:08Z</time>
      </trkpt>
      <trkpt lat="44.80431" lon="1.59632">
        <ele>262.5771484375</ele>
        <time>2012-05-13T10:09:17Z</time>
      </trkpt>
      <trkpt lat="44.80429" lon="1.59662">
        <ele>262.5771484375</ele>
        <time>2012-05-13T10:09:39Z</time>
      </trkpt>
      <trkpt lat="44.80425" lon="1.59683">
        <ele>263.05786132812</ele>
        <time>2012-05-13T10:09:55Z</time>
      </trkpt>
      <trkpt lat="44.80424" lon="1.597">
        <ele>263.53857421875</ele>
        <time>2012-05-13T10:10:07Z</time>
      </trkpt>
      <trkpt lat="44.80423" lon="1.59721">
        <ele>263.53857421875</ele>
        <time>2012-05-13T10:10:20Z</time>
      </trkpt>
      <trkpt lat="44.80423" lon="1.59734">
        <ele>263.53857421875</ele>
        <time>2012-05-13T10:10:28Z</time>
      </trkpt>
      <trkpt lat="44.80422" lon="1.59757">
        <ele>263.53857421875</ele>
        <time>2012-05-13T10:10:43Z</time>
      </trkpt>
      <trkpt lat="44.80418" lon="1.59777">
        <ele>263.53857421875</ele>
        <time>2012-05-13T10:10:56Z</time>
      </trkpt>
      <trkpt lat="44.80407" lon="1.59804">
        <ele>262.5771484375</ele>
        <time>2012-05-13T10:11:14Z</time>
      </trkpt>
      <trkpt lat="44.804" lon="1.59821">
        <ele>262.5771484375</ele>
        <time>2012-05-13T10:11:27Z</time>
      </trkpt>
      <trkpt lat="44.80401" lon="1.59826">
        <ele>262.5771484375</ele>
        <time>2012-05-13T10:11:30Z</time>
      </trkpt>
      <trkpt lat="44.80404" lon="1.59831">
        <ele>262.09655761719</ele>
        <time>2012-05-13T10:11:34Z</time>
      </trkpt>
      <trkpt lat="44.80423" lon="1.59833">
        <ele>263.53857421875</ele>
        <time>2012-05-13T10:11:51Z</time>
      </trkpt>
      <trkpt lat="44.80428" lon="1.59833">
        <ele>264.49987792969</ele>
        <time>2012-05-13T10:11:56Z</time>
      </trkpt>
      <trkpt lat="44.80433" lon="1.59835">
        <ele>264.49987792969</ele>
        <time>2012-05-13T10:12:00Z</time>
      </trkpt>
      <trkpt lat="44.8045" lon="1.59835">
        <ele>265.94189453125</ele>
        <time>2012-05-13T10:12:15Z</time>
      </trkpt>
      <trkpt lat="44.80454" lon="1.59835">
        <ele>265.94189453125</ele>
        <time>2012-05-13T10:12:19Z</time>
      </trkpt>
      <trkpt lat="44.80472" lon="1.59842">
        <ele>266.42248535156</ele>
        <time>2012-05-13T10:12:34Z</time>
      </trkpt>
      <trkpt lat="44.80477" lon="1.5984">
        <ele>266.42248535156</ele>
        <time>2012-05-13T10:12:39Z</time>
      </trkpt>
      <trkpt lat="44.80487" lon="1.59844">
        <ele>267.86450195312</ele>
        <time>2012-05-13T10:12:50Z</time>
      </trkpt>
      <trkpt lat="44.80493" lon="1.59843">
        <ele>267.86450195312</ele>
        <time>2012-05-13T10:12:55Z</time>
      </trkpt>
      <trkpt lat="44.80501" lon="1.59842">
        <ele>267.86450195312</ele>
        <time>2012-05-13T10:13:01Z</time>
      </trkpt>
      <trkpt lat="44.80503" lon="1.59843">
        <ele>267.86450195312</ele>
        <time>2012-05-13T10:13:03Z</time>
      </trkpt>
      <trkpt lat="44.80504" lon="1.59844">
        <ele>267.86450195312</ele>
        <time>2012-05-13T10:13:05Z</time>
      </trkpt>
      <trkpt lat="44.80513" lon="1.59845">
        <ele>268.34509277344</ele>
        <time>2012-05-13T10:13:12Z</time>
      </trkpt>
      <trkpt lat="44.8053" lon="1.59847">
        <ele>268.34509277344</ele>
        <time>2012-05-13T10:13:27Z</time>
      </trkpt>
      <trkpt lat="44.80533" lon="1.59849">
        <ele>268.82580566406</ele>
        <time>2012-05-13T10:13:30Z</time>
      </trkpt>
      <trkpt lat="44.80534" lon="1.59855">
        <ele>268.82580566406</ele>
        <time>2012-05-13T10:13:34Z</time>
      </trkpt>
      <trkpt lat="44.80535" lon="1.59881">
        <ele>269.30651855469</ele>
        <time>2012-05-13T10:13:50Z</time>
      </trkpt>
      <trkpt lat="44.80534" lon="1.59887">
        <ele>269.30651855469</ele>
        <time>2012-05-13T10:13:54Z</time>
      </trkpt>
      <trkpt lat="44.80533" lon="1.59915">
        <ele>270.74841308594</ele>
        <time>2012-05-13T10:14:13Z</time>
      </trkpt>
      <trkpt lat="44.80533" lon="1.59917">
        <ele>270.26770019531</ele>
        <time>2012-05-13T10:14:14Z</time>
      </trkpt>
      <trkpt lat="44.80531" lon="1.5993">
        <ele>271.22912597656</ele>
        <time>2012-05-13T10:14:22Z</time>
      </trkpt>
      <trkpt lat="44.80531" lon="1.59934">
        <ele>270.74841308594</ele>
        <time>2012-05-13T10:14:25Z</time>
      </trkpt>
      <trkpt lat="44.80532" lon="1.59954">
        <ele>271.70971679688</ele>
        <time>2012-05-13T10:14:38Z</time>
      </trkpt>
      <trkpt lat="44.80531" lon="1.59966">
        <ele>271.70971679688</ele>
        <time>2012-05-13T10:14:45Z</time>
      </trkpt>
      <trkpt lat="44.8053" lon="1.59984">
        <ele>272.67114257812</ele>
        <time>2012-05-13T10:14:56Z</time>
      </trkpt>
      <trkpt lat="44.80529" lon="1.60021">
        <ele>272.67114257812</ele>
        <time>2012-05-13T10:15:19Z</time>
      </trkpt>
      <trkpt lat="44.80529" lon="1.60027">
        <ele>272.67114257812</ele>
        <time>2012-05-13T10:15:23Z</time>
      </trkpt>
      <trkpt lat="44.80531" lon="1.60051">
        <ele>273.15185546875</ele>
        <time>2012-05-13T10:15:38Z</time>
      </trkpt>
      <trkpt lat="44.8053" lon="1.60076">
        <ele>273.63244628906</ele>
        <time>2012-05-13T10:15:53Z</time>
      </trkpt>
      <trkpt lat="44.8053" lon="1.60084">
        <ele>272.67114257812</ele>
        <time>2012-05-13T10:15:58Z</time>
      </trkpt>
      <trkpt lat="44.80525" lon="1.60131">
        <ele>273.15185546875</ele>
        <time>2012-05-13T10:16:27Z</time>
      </trkpt>
      <trkpt lat="44.80523" lon="1.60152">
        <ele>273.63244628906</ele>
        <time>2012-05-13T10:16:40Z</time>
      </trkpt>
      <trkpt lat="44.80522" lon="1.60155">
        <ele>273.15185546875</ele>
        <time>2012-05-13T10:16:42Z</time>
      </trkpt>
      <trkpt lat="44.80524" lon="1.60175">
        <ele>273.15185546875</ele>
        <time>2012-05-13T10:16:56Z</time>
      </trkpt>
      <trkpt lat="44.80522" lon="1.60186">
        <ele>274.11303710938</ele>
        <time>2012-05-13T10:17:04Z</time>
      </trkpt>
      <trkpt lat="44.80523" lon="1.60203">
        <ele>274.11303710938</ele>
        <time>2012-05-13T10:17:13Z</time>
      </trkpt>
      <trkpt lat="44.80519" lon="1.60229">
        <ele>273.63244628906</ele>
        <time>2012-05-13T10:17:31Z</time>
      </trkpt>
      <trkpt lat="44.80518" lon="1.60258">
        <ele>273.63244628906</ele>
        <time>2012-05-13T10:17:50Z</time>
      </trkpt>
      <trkpt lat="44.80515" lon="1.6029">
        <ele>273.15185546875</ele>
        <time>2012-05-13T10:18:10Z</time>
      </trkpt>
      <trkpt lat="44.80512" lon="1.60313">
        <ele>271.70971679688</ele>
        <time>2012-05-13T10:18:24Z</time>
      </trkpt>
      <trkpt lat="44.80509" lon="1.60345">
        <ele>271.70971679688</ele>
        <time>2012-05-13T10:18:43Z</time>
      </trkpt>
      <trkpt lat="44.80505" lon="1.60378">
        <ele>270.26770019531</ele>
        <time>2012-05-13T10:19:04Z</time>
      </trkpt>
      <trkpt lat="44.80498" lon="1.60419">
        <ele>267.86450195312</ele>
        <time>2012-05-13T10:19:32Z</time>
      </trkpt>
      <trkpt lat="44.80493" lon="1.60459">
        <ele>264.98059082031</ele>
        <time>2012-05-13T10:19:59Z</time>
      </trkpt>
      <trkpt lat="44.80496" lon="1.60492">
        <ele>262.5771484375</ele>
        <time>2012-05-13T10:20:22Z</time>
      </trkpt>
      <trkpt lat="44.80501" lon="1.60525">
        <ele>261.61596679688</ele>
        <time>2012-05-13T10:20:45Z</time>
      </trkpt>
      <trkpt lat="44.80489" lon="1.60554">
        <ele>260.17395019531</ele>
        <time>2012-05-13T10:21:04Z</time>
      </trkpt>
      <trkpt lat="44.80479" lon="1.60577">
        <ele>260.17395019531</ele>
        <time>2012-05-13T10:21:19Z</time>
      </trkpt>
      <trkpt lat="44.80469" lon="1.60602">
        <ele>260.17395019531</ele>
        <time>2012-05-13T10:21:36Z</time>
      </trkpt>
      <trkpt lat="44.80463" lon="1.60618">
        <ele>260.65454101562</ele>
        <time>2012-05-13T10:21:50Z</time>
      </trkpt>
      <trkpt lat="44.80455" lon="1.60634">
        <ele>261.13525390625</ele>
        <time>2012-05-13T10:22:03Z</time>
      </trkpt>
      <trkpt lat="44.80451" lon="1.60641">
        <ele>261.61596679688</ele>
        <time>2012-05-13T10:22:09Z</time>
      </trkpt>
      <trkpt lat="44.80448" lon="1.60644">
        <ele>261.13525390625</ele>
        <time>2012-05-13T10:22:12Z</time>
      </trkpt>
      <trkpt lat="44.80439" lon="1.60652">
        <ele>260.65454101562</ele>
        <time>2012-05-13T10:22:24Z</time>
      </trkpt>
      <trkpt lat="44.80423" lon="1.60663">
        <ele>260.17395019531</ele>
        <time>2012-05-13T10:22:40Z</time>
      </trkpt>
      <trkpt lat="44.80417" lon="1.60669">
        <ele>259.693359375</ele>
        <time>2012-05-13T10:22:46Z</time>
      </trkpt>
      <trkpt lat="44.80405" lon="1.60679">
        <ele>260.65454101562</ele>
        <time>2012-05-13T10:23:00Z</time>
      </trkpt>
      <trkpt lat="44.80389" lon="1.60699">
        <ele>262.09655761719</ele>
        <time>2012-05-13T10:23:21Z</time>
      </trkpt>
      <trkpt lat="44.8038" lon="1.60711">
        <ele>263.05786132812</ele>
        <time>2012-05-13T10:23:36Z</time>
      </trkpt>
      <trkpt lat="44.80379" lon="1.60713">
        <ele>263.05786132812</ele>
        <time>2012-05-13T10:23:37Z</time>
      </trkpt>
      <trkpt lat="44.80378" lon="1.6073">
        <ele>264.01928710938</ele>
        <time>2012-05-13T10:23:50Z</time>
      </trkpt>
      <trkpt lat="44.80379" lon="1.60743">
        <ele>264.49987792969</ele>
        <time>2012-05-13T10:23:59Z</time>
      </trkpt>
      <trkpt lat="44.80383" lon="1.60762">
        <ele>265.46130371094</ele>
        <time>2012-05-13T10:24:15Z</time>
      </trkpt>
      <trkpt lat="44.80389" lon="1.60778">
        <ele>265.46130371094</ele>
        <time>2012-05-13T10:24:31Z</time>
      </trkpt>
      <trkpt lat="44.80388" lon="1.60782">
        <ele>265.46130371094</ele>
        <time>2012-05-13T10:24:34Z</time>
      </trkpt>
      <trkpt lat="44.80387" lon="1.608">
        <ele>265.46130371094</ele>
        <time>2012-05-13T10:24:46Z</time>
      </trkpt>
      <trkpt lat="44.80385" lon="1.60817">
        <ele>265.46130371094</ele>
        <time>2012-05-13T10:24:57Z</time>
      </trkpt>
      <trkpt lat="44.80383" lon="1.60843">
        <ele>265.46130371094</ele>
        <time>2012-05-13T10:25:14Z</time>
      </trkpt>
      <trkpt lat="44.8038" lon="1.60864">
        <ele>264.98059082031</ele>
        <time>2012-05-13T10:25:29Z</time>
      </trkpt>
      <trkpt lat="44.80379" lon="1.60865">
        <ele>264.49987792969</ele>
        <time>2012-05-13T10:25:31Z</time>
      </trkpt>
      <trkpt lat="44.80377" lon="1.60895">
        <ele>264.98059082031</ele>
        <time>2012-05-13T10:25:48Z</time>
      </trkpt>
      <trkpt lat="44.80376" lon="1.6092">
        <ele>263.53857421875</ele>
        <time>2012-05-13T10:26:05Z</time>
      </trkpt>
      <trkpt lat="44.80377" lon="1.60943">
        <ele>263.53857421875</ele>
        <time>2012-05-13T10:26:19Z</time>
      </trkpt>
      <trkpt lat="44.80379" lon="1.60957">
        <ele>264.49987792969</ele>
        <time>2012-05-13T10:26:29Z</time>
      </trkpt>
      <trkpt lat="44.80383" lon="1.60981">
        <ele>263.53857421875</ele>
        <time>2012-05-13T10:26:43Z</time>
      </trkpt>
      <trkpt lat="44.80384" lon="1.6099">
        <ele>263.53857421875</ele>
        <time>2012-05-13T10:26:49Z</time>
      </trkpt>
      <trkpt lat="44.80388" lon="1.61006">
        <ele>263.05786132812</ele>
        <time>2012-05-13T10:27:00Z</time>
      </trkpt>
      <trkpt lat="44.80389" lon="1.61012">
        <ele>263.05786132812</ele>
        <time>2012-05-13T10:27:04Z</time>
      </trkpt>
      <trkpt lat="44.8039" lon="1.61025">
        <ele>262.5771484375</ele>
        <time>2012-05-13T10:27:12Z</time>
      </trkpt>
      <trkpt lat="44.80392" lon="1.61029">
        <ele>262.5771484375</ele>
        <time>2012-05-13T10:27:16Z</time>
      </trkpt>
      <trkpt lat="44.804" lon="1.61056">
        <ele>262.5771484375</ele>
        <time>2012-05-13T10:27:31Z</time>
      </trkpt>
      <trkpt lat="44.80403" lon="1.61063">
        <ele>263.05786132812</ele>
        <time>2012-05-13T10:27:35Z</time>
      </trkpt>
      <trkpt lat="44.80408" lon="1.61072">
        <ele>262.09655761719</ele>
        <time>2012-05-13T10:27:43Z</time>
      </trkpt>
      <trkpt lat="44.80411" lon="1.61078">
        <ele>262.09655761719</ele>
        <time>2012-05-13T10:27:48Z</time>
      </trkpt>
      <trkpt lat="44.80422" lon="1.61099">
        <ele>263.05786132812</ele>
        <time>2012-05-13T10:28:03Z</time>
      </trkpt>
      <trkpt lat="44.80429" lon="1.61113">
        <ele>264.01928710938</ele>
        <time>2012-05-13T10:28:18Z</time>
      </trkpt>
      <trkpt lat="44.80439" lon="1.61135">
        <ele>264.98059082031</ele>
        <time>2012-05-13T10:28:31Z</time>
      </trkpt>
      <trkpt lat="44.80442" lon="1.61144">
        <ele>264.98059082031</ele>
        <time>2012-05-13T10:28:37Z</time>
      </trkpt>
      <trkpt lat="44.80448" lon="1.61155">
        <ele>264.98059082031</ele>
        <time>2012-05-13T10:28:48Z</time>
      </trkpt>
      <trkpt lat="44.8045" lon="1.61189">
        <ele>266.42248535156</ele>
        <time>2012-05-13T10:29:09Z</time>
      </trkpt>
      <trkpt lat="44.80453" lon="1.61226">
        <ele>267.38391113281</ele>
        <time>2012-05-13T10:29:37Z</time>
      </trkpt>
      <trkpt lat="44.80453" lon="1.61237">
        <ele>267.38391113281</ele>
        <time>2012-05-13T10:29:44Z</time>
      </trkpt>
      <trkpt lat="44.80452" lon="1.61246">
        <ele>267.38391113281</ele>
        <time>2012-05-13T10:29:50Z</time>
      </trkpt>
      <trkpt lat="44.80435" lon="1.61269">
        <ele>267.38391113281</ele>
        <time>2012-05-13T10:30:10Z</time>
      </trkpt>
      <trkpt lat="44.80418" lon="1.61287">
        <ele>266.90319824219</ele>
        <time>2012-05-13T10:30:29Z</time>
      </trkpt>
      <trkpt lat="44.80406" lon="1.61303">
        <ele>266.90319824219</ele>
        <time>2012-05-13T10:30:44Z</time>
      </trkpt>
      <trkpt lat="44.80399" lon="1.61311">
        <ele>266.90319824219</ele>
        <time>2012-05-13T10:30:52Z</time>
      </trkpt>
      <trkpt lat="44.80385" lon="1.61326">
        <ele>266.42248535156</ele>
        <time>2012-05-13T10:31:06Z</time>
      </trkpt>
      <trkpt lat="44.80365" lon="1.61346">
        <ele>267.38391113281</ele>
        <time>2012-05-13T10:31:27Z</time>
      </trkpt>
      <trkpt lat="44.8035" lon="1.6137">
        <ele>266.90319824219</ele>
        <time>2012-05-13T10:31:47Z</time>
      </trkpt>
      <trkpt lat="44.80341" lon="1.61388">
        <ele>266.90319824219</ele>
        <time>2012-05-13T10:32:01Z</time>
      </trkpt>
      <trkpt lat="44.80336" lon="1.61395">
        <ele>266.42248535156</ele>
        <time>2012-05-13T10:32:08Z</time>
      </trkpt>
      <trkpt lat="44.80322" lon="1.61418">
        <ele>265.94189453125</ele>
        <time>2012-05-13T10:32:26Z</time>
      </trkpt>
      <trkpt lat="44.80311" lon="1.61441">
        <ele>265.94189453125</ele>
        <time>2012-05-13T10:32:43Z</time>
      </trkpt>
      <trkpt lat="44.80305" lon="1.61448">
        <ele>265.46130371094</ele>
        <time>2012-05-13T10:32:49Z</time>
      </trkpt>
      <trkpt lat="44.80302" lon="1.61452">
        <ele>265.46130371094</ele>
        <time>2012-05-13T10:32:52Z</time>
      </trkpt>
      <trkpt lat="44.80292" lon="1.61481">
        <ele>265.46130371094</ele>
        <time>2012-05-13T10:33:13Z</time>
      </trkpt>
      <trkpt lat="44.80285" lon="1.61498">
        <ele>264.98059082031</ele>
        <time>2012-05-13T10:33:26Z</time>
      </trkpt>
      <trkpt lat="44.80276" lon="1.61514">
        <ele>264.01928710938</ele>
        <time>2012-05-13T10:33:38Z</time>
      </trkpt>
      <trkpt lat="44.80265" lon="1.61541">
        <ele>263.05786132812</ele>
        <time>2012-05-13T10:33:57Z</time>
      </trkpt>
      <trkpt lat="44.80262" lon="1.61545">
        <ele>262.5771484375</ele>
        <time>2012-05-13T10:34:01Z</time>
      </trkpt>
      <trkpt lat="44.8026" lon="1.61553">
        <ele>262.5771484375</ele>
        <time>2012-05-13T10:34:07Z</time>
      </trkpt>
      <trkpt lat="44.8025" lon="1.61569">
        <ele>262.09655761719</ele>
        <time>2012-05-13T10:34:20Z</time>
      </trkpt>
      <trkpt lat="44.80248" lon="1.61573">
        <ele>262.09655761719</ele>
        <time>2012-05-13T10:34:23Z</time>
      </trkpt>
      <trkpt lat="44.80246" lon="1.61579">
        <ele>262.09655761719</ele>
        <time>2012-05-13T10:34:27Z</time>
      </trkpt>
      <trkpt lat="44.80244" lon="1.61583">
        <ele>261.61596679688</ele>
        <time>2012-05-13T10:34:30Z</time>
      </trkpt>
      <trkpt lat="44.80241" lon="1.61588">
        <ele>262.09655761719</ele>
        <time>2012-05-13T10:34:33Z</time>
      </trkpt>
      <trkpt lat="44.8024" lon="1.61593">
        <ele>261.61596679688</ele>
        <time>2012-05-13T10:34:36Z</time>
      </trkpt>
      <trkpt lat="44.80233" lon="1.61608">
        <ele>261.61596679688</ele>
        <time>2012-05-13T10:34:46Z</time>
      </trkpt>
      <trkpt lat="44.80231" lon="1.6161">
        <ele>261.61596679688</ele>
        <time>2012-05-13T10:34:50Z</time>
      </trkpt>
      <trkpt lat="44.80227" lon="1.61629">
        <ele>261.61596679688</ele>
        <time>2012-05-13T10:35:01Z</time>
      </trkpt>
      <trkpt lat="44.80223" lon="1.61641">
        <ele>261.13525390625</ele>
        <time>2012-05-13T10:35:11Z</time>
      </trkpt>
      <trkpt lat="44.80218" lon="1.6165">
        <ele>261.13525390625</ele>
        <time>2012-05-13T10:35:19Z</time>
      </trkpt>
      <trkpt lat="44.802" lon="1.61658">
        <ele>260.65454101562</ele>
        <time>2012-05-13T10:35:35Z</time>
      </trkpt>
      <trkpt lat="44.80198" lon="1.61659">
        <ele>260.17395019531</ele>
        <time>2012-05-13T10:35:37Z</time>
      </trkpt>
      <trkpt lat="44.80195" lon="1.6166">
        <ele>260.65454101562</ele>
        <time>2012-05-13T10:35:39Z</time>
      </trkpt>
      <trkpt lat="44.80184" lon="1.61666">
        <ele>260.17395019531</ele>
        <time>2012-05-13T10:35:50Z</time>
      </trkpt>
      <trkpt lat="44.80175" lon="1.61673">
        <ele>259.693359375</ele>
        <time>2012-05-13T10:36:00Z</time>
      </trkpt>
      <trkpt lat="44.80168" lon="1.61675">
        <ele>259.693359375</ele>
        <time>2012-05-13T10:36:07Z</time>
      </trkpt>
      <trkpt lat="44.8016" lon="1.61668">
        <ele>259.21264648438</ele>
        <time>2012-05-13T10:36:16Z</time>
      </trkpt>
      <trkpt lat="44.80154" lon="1.61665">
        <ele>259.21264648438</ele>
        <time>2012-05-13T10:36:21Z</time>
      </trkpt>
      <trkpt lat="44.80142" lon="1.61654">
        <ele>259.21264648438</ele>
        <time>2012-05-13T10:36:36Z</time>
      </trkpt>
      <trkpt lat="44.80137" lon="1.6165">
        <ele>258.73193359375</ele>
        <time>2012-05-13T10:36:48Z</time>
      </trkpt>
      <trkpt lat="44.80135" lon="1.61633">
        <ele>258.73193359375</ele>
        <time>2012-05-13T10:37:02Z</time>
      </trkpt>
      <trkpt lat="44.80134" lon="1.61607">
        <ele>258.25134277344</ele>
        <time>2012-05-13T10:37:21Z</time>
      </trkpt>
      <trkpt lat="44.80135" lon="1.61603">
        <ele>258.25134277344</ele>
        <time>2012-05-13T10:37:36Z</time>
      </trkpt>
      <trkpt lat="44.80135" lon="1.61603">
        <ele>258.25134277344</ele>
        <time>2012-05-13T10:37:41Z</time>
      </trkpt>
    </trkseg>
  </trk>
</gpx>